Time,TemperatureF,DewpointF,PressureIn,WindDirection,WindDirectionDegrees,WindSpeedMPH,WindSpeedGustMPH,Humidity,HourlyPrecipIn,Conditions,Clouds,dailyrainin,SoftwareType,DateUTC
2013-05-04 04:03:00,35.4,24.1,29.85,NE,45,0.0,0.0,63,0.00,CLR,,0.00,WeatherDisplay:10.37,2013-05-04 11:03:00,
2013-05-04 04:08:00,35.4,24.8,29.85,NNE,22,0.0,0.0,65,0.00,CLR,,0.00,WeatherDisplay:10.37,2013-05-04 11:08:00,
2013-05-04 04:13:00,35.2,24.6,29.85,ENE,68,0.0,0.0,65,0.00,CLR,,0.00,WeatherDisplay:10.37,2013-05-04 11:13:00,
2013-05-04 04:14:00,35.2,24.6,29.85,ENE,68,0.0,0.0,65,0.00,CLR,,0.00,WeatherDisplay:10.37,2013-05-04 11:14:00,
2013-05-04 04:18:00,35.2,24.6,29.85,NNE,22,0.0,0.0,65,0.00,CLR,,0.00,WeatherDisplay:10.37,2013-05-04 11:18:00,
2013-05-04 04:19:00,35.2,24.6,29.85,NNE,22,0.0,0.0,65,0.00,CLR,,0.00,WeatherDisplay:10.37,2013-05-04 11:19:00,
2013-05-04 04:23:00,35.1,24.5,29.84,North,0,0.0,0.0,65,0.00,CLR,,0.00,WeatherDisplay:10.37,2013-05-04 11:23:00,
2013-05-04 04:24:00,35.1,24.8,29.84,North,0,0.0,0.0,66,0.00,CLR,,0.00,WeatherDisplay:10.37,2013-05-04 11:24:00,
2013-05-04 04:28:00,34.9,24.3,29.84,NNE,22,0.0,0.0,65,0.00,CLR,,0.00,WeatherDisplay:10.37,2013-05-04 11:28:00,
2013-05-04 04:29:00,34.9,24.3,29.84,NNE,22,0.0,0.0,65,0.00,CLR,,0.00,WeatherDisplay:10.37,2013-05-04 11:29:00,
2013-05-04 04:30:00,34.9,24.7,29.84,NNE,22,0.0,0.0,66,0.00,CLR,,0.00,WeatherDisplay:10.37,2013-05-04 11:30:00,
2013-05-04 04:33:00,34.7,24.1,29.84,NE,45,0.0,0.0,65,0.00,CLR,,0.00,WeatherDisplay:10.37,2013-05-04 11:33:00,
2013-05-04 04:34:00,34.9,24.7,29.84,NE,45,0.0,0.0,66,0.00,CLR,,0.00,WeatherDisplay:10.37,2013-05-04 11:34:00,
2013-05-04 04:35:00,34.9,24.7,29.84,NE,45,0.0,0.0,66,0.00,CLR,,0.00,WeatherDisplay:10.37,2013-05-04 11:35:00,
2013-05-04 04:39:00,34.7,24.9,29.84,North,0,0.0,0.0,67,0.00,CLR,,0.00,WeatherDisplay:10.37,2013-05-04 11:39:00,
2013-05-04 04:40:00,34.7,24.9,29.84,NNE,22,0.0,0.0,67,0.00,CLR,,0.00,WeatherDisplay:10.37,2013-05-04 11:40:00,
2013-05-04 04:44:00,34.7,24.5,29.84,NE,45,0.0,0.0,66,0.00,CLR,,0.00,WeatherDisplay:10.37,2013-05-04 11:44:00,
2013-05-04 04:45:00,34.7,24.5,29.84,NNE,17,0.0,0.0,66,0.00,CLR,CLR,0.00,WeatherDisplay:10.37,2013-05-04 11:45:00,
2013-05-04 04:46:00,34.7,24.9,29.84,NE,45,0.0,0.0,67,0.00,CLR,,0.00,WeatherDisplay:10.37,2013-05-04 11:46:00,
2013-05-04 04:49:00,34.7,25.2,29.84,NNW,338,0.0,0.0,68,0.00,CLR,,0.00,WeatherDisplay:10.37,2013-05-04 11:49:00,
2013-05-04 04:51:00,34.7,25.2,29.84,ENE,68,0.0,0.0,68,0.00,CLR,,0.00,WeatherDisplay:10.37,2013-05-04 11:51:00,
2013-05-04 04:56:00,34.5,24.7,29.84,NNE,22,0.0,0.0,67,0.00,CLR,,0.00,WeatherDisplay:10.37,2013-05-04 11:56:00,
2013-05-04 04:57:00,34.5,24.7,29.84,NNE,22,0.0,0.0,67,0.00,CLR,,0.00,WeatherDisplay:10.37,2013-05-04 11:57:00,
2013-05-04 05:01:00,34.2,24.0,29.84,NNE,22,0.0,0.0,66,0.00,CLR,,0.00,WeatherDisplay:10.37,2013-05-04 12:01:00,
2013-05-04 05:02:00,34.2,24.0,29.84,NE,45,0.0,0.0,66,0.00,CLR,,0.00,WeatherDisplay:10.37,2013-05-04 12:02:00,
2013-05-04 05:07:00,34.0,23.4,29.84,NNE,22,0.0,0.0,65,0.00,CLR,,0.00,WeatherDisplay:10.37,2013-05-04 12:07:00,
2013-05-04 05:08:00,34.0,23.8,29.84,NNW,338,0.0,0.0,66,0.00,CLR,,0.00,WeatherDisplay:10.37,2013-05-04 12:08:00,
2013-05-04 05:12:00,34.0,24.2,29.84,North,0,0.0,0.0,67,0.00,CLR,,0.00,WeatherDisplay:10.37,2013-05-04 12:12:00,
2013-05-04 05:13:00,34.0,24.2,29.84,North,0,0.0,0.0,67,0.00,CLR,,0.00,WeatherDisplay:10.37,2013-05-04 12:13:00,
2013-05-04 05:14:00,34.0,23.8,29.84,North,0,0.0,0.0,66,0.00,CLR,,0.00,WeatherDisplay:10.37,2013-05-04 12:14:00,
2013-05-04 05:18:00,33.8,23.6,29.84,SE,135,0.0,0.0,66,0.00,CLR,,0.00,WeatherDisplay:10.37,2013-05-04 12:18:00,
2013-05-04 05:19:00,33.8,23.6,29.84,NE,45,0.2,1.1,66,0.00,CLR,,0.00,WeatherDisplay:10.37,2013-05-04 12:19:00,
2013-05-04 05:23:00,33.8,23.6,29.84,NE,45,0.3,0.0,66,0.00,CLR,,0.00,WeatherDisplay:10.37,2013-05-04 12:23:00,
2013-05-04 05:24:00,34.0,24.2,29.84,NE,45,0.3,0.0,67,0.00,CLR,,0.00,WeatherDisplay:10.37,2013-05-04 12:24:00,
2013-05-04 05:25:00,34.0,24.2,29.84,NE,45,0.3,0.0,67,0.00,CLR,,0.00,WeatherDisplay:10.37,2013-05-04 12:25:00,
2013-05-04 05:28:00,34.0,24.2,29.84,ENE,68,0.3,0.0,67,0.00,CLR,,0.00,WeatherDisplay:10.37,2013-05-04 12:28:00,
2013-05-04 05:29:00,34.0,24.2,29.84,ENE,68,0.3,0.0,67,0.00,CLR,,0.00,WeatherDisplay:10.37,2013-05-04 12:29:00,
2013-05-04 05:30:00,34.0,24.2,29.84,NE,45,0.1,0.0,67,0.00,CLR,,0.00,WeatherDisplay:10.37,2013-05-04 12:30:00,
2013-05-04 05:31:00,34.0,24.2,29.84,NE,45,0.1,0.0,67,0.00,CLR,,0.00,WeatherDisplay:10.37,2013-05-04 12:31:00,
2013-05-04 05:34:00,33.8,24.4,29.84,NNE,22,0.0,0.0,68,0.00,CLR,,0.00,WeatherDisplay:10.37,2013-05-04 12:34:00,
2013-05-04 05:35:00,33.8,24.4,29.84,NNE,22,0.0,0.0,68,0.00,CLR,,0.00,WeatherDisplay:10.37,2013-05-04 12:35:00,
2013-05-04 05:36:00,33.6,24.5,29.84,NNE,22,0.0,0.0,69,0.00,CLR,,0.00,WeatherDisplay:10.37,2013-05-04 12:36:00,
2013-05-04 05:41:00,33.6,24.2,29.84,ENE,68,0.0,1.1,68,0.00,CLR,,0.00,WeatherDisplay:10.37,2013-05-04 12:41:00,
2013-05-04 05:46:00,33.6,24.2,29.84,SE,135,0.1,1.1,68,0.00,CLR,,0.00,WeatherDisplay:10.37,2013-05-04 12:46:00,
2013-05-04 05:47:00,33.6,24.2,29.84,SE,135,0.1,0.0,68,0.00,CLR,,0.00,WeatherDisplay:10.37,2013-05-04 12:47:00,
2013-05-04 06:25:00,33.6,24.2,29.84,SE,135,0.1,0.0,68,0.00,CLR,,0.00,WeatherDisplay:10.37,2013-05-04 13:25:00,
2013-05-04 06:30:00,33.6,24.2,29.84,SE,135,0.1,0.0,68,0.00,CLR,,0.00,WeatherDisplay:10.37,2013-05-04 13:30:00,
2013-05-04 06:31:00,33.6,24.2,29.84,SE,135,0.1,0.0,68,0.00,CLR,,0.00,WeatherDisplay:10.37,2013-05-04 13:31:00,
2013-05-04 06:35:00,33.6,24.2,29.84,SE,135,0.1,0.0,68,0.00,CLR,,0.00,WeatherDisplay:10.37,2013-05-04 13:35:00,
2013-05-04 06:36:00,33.6,24.2,29.84,SE,135,0.1,0.0,68,0.00,CLR,,0.00,WeatherDisplay:10.37,2013-05-04 13:36:00,
2013-05-04 06:37:00,33.6,24.2,29.84,SE,135,0.1,0.0,68,0.00,CLR,,0.00,WeatherDisplay:10.37,2013-05-04 13:37:00,
2013-05-04 06:41:00,33.6,24.2,29.84,SE,135,0.1,0.0,68,0.00,CLR,,0.00,WeatherDisplay:10.37,2013-05-04 13:41:00,
2013-05-04 06:42:00,33.6,24.2,29.84,SE,135,0.1,0.0,68,0.00,CLR,,0.00,WeatherDisplay:10.37,2013-05-04 13:42:00,
2013-05-04 06:46:00,33.6,24.2,29.84,SE,135,0.1,0.0,68,0.00,CLR,,0.00,WeatherDisplay:10.37,2013-05-04 13:46:00,
2013-05-04 06:47:00,33.6,24.2,29.84,SE,135,0.1,0.0,68,0.00,CLR,,0.00,WeatherDisplay:10.37,2013-05-04 13:47:00,
2013-05-04 06:51:00,33.6,24.2,29.84,SE,135,0.1,0.0,68,0.00,CLR,,0.00,WeatherDisplay:10.37,2013-05-04 13:51:00,
2013-05-04 06:52:00,33.6,24.2,29.84,SE,135,0.1,0.0,68,0.00,CLR,,0.00,WeatherDisplay:10.37,2013-05-04 13:52:00,
2013-05-04 06:53:00,33.6,24.2,29.84,SE,135,0.1,0.0,68,0.00,CLR,,0.00,WeatherDisplay:10.37,2013-05-04 13:53:00,
2013-05-04 06:56:00,33.6,24.2,29.84,SE,135,0.1,0.0,68,0.00,CLR,,0.00,WeatherDisplay:10.37,2013-05-04 13:56:00,
2013-05-04 06:57:00,33.6,24.2,29.84,SE,135,0.1,0.0,68,0.00,CLR,,0.00,WeatherDisplay:10.37,2013-05-04 13:57:00,
2013-05-04 06:58:00,33.6,24.2,29.84,SE,135,0.1,0.0,68,0.00,CLR,,0.00,WeatherDisplay:10.37,2013-05-04 13:58:00,
2013-05-04 07:01:00,33.6,24.2,29.84,SE,135,0.1,0.0,68,0.00,CLR,,0.00,WeatherDisplay:10.37,2013-05-04 14:01:00,
2013-05-04 07:02:00,33.6,24.2,29.84,SE,135,0.1,0.0,68,0.00,CLR,,0.00,WeatherDisplay:10.37,2013-05-04 14:02:00,
2013-05-04 07:03:00,33.6,24.2,29.84,SE,135,0.1,0.0,68,0.00,CLR,,0.00,WeatherDisplay:10.37,2013-05-04 14:03:00,
2013-05-04 07:07:00,33.6,24.2,29.84,SE,135,0.1,0.0,68,0.00,CLR,,0.00,WeatherDisplay:10.37,2013-05-04 14:07:00,
2013-05-04 07:08:00,33.6,24.2,29.84,SE,135,0.1,0.0,68,0.00,CLR,,0.00,WeatherDisplay:10.37,2013-05-04 14:08:00,
2013-05-04 07:12:00,33.6,24.2,29.84,SE,135,0.1,0.0,68,0.00,CLR,,0.00,WeatherDisplay:10.37,2013-05-04 14:12:00,
2013-05-04 07:13:00,33.6,24.2,29.84,SE,135,0.1,0.0,68,0.00,CLR,,0.00,WeatherDisplay:10.37,2013-05-04 14:13:00,
2013-05-04 07:17:00,33.6,24.2,29.84,SE,135,0.1,0.0,68,0.00,CLR,,0.00,WeatherDisplay:10.37,2013-05-04 14:17:00,
2013-05-04 07:18:00,33.6,24.2,29.84,SE,135,0.1,0.0,68,0.00,CLR,,0.00,WeatherDisplay:10.37,2013-05-04 14:18:00,
2013-05-04 07:19:00,33.6,24.2,29.84,SE,135,0.1,0.0,68,0.00,CLR,,0.00,WeatherDisplay:10.37,2013-05-04 14:19:00,
2013-05-04 07:22:00,33.6,24.2,29.84,SE,135,0.1,0.0,68,0.00,CLR,,0.00,WeatherDisplay:10.37,2013-05-04 14:22:00,
2013-05-04 07:23:00,33.6,24.2,29.84,SE,135,0.1,0.0,68,0.00,CLR,,0.00,WeatherDisplay:10.37,2013-05-04 14:23:00,
2013-05-04 07:24:00,33.6,24.2,29.84,SE,135,0.1,0.0,68,0.00,CLR,,0.00,WeatherDisplay:10.37,2013-05-04 14:24:00,
2013-05-04 07:28:00,33.6,24.2,29.84,SE,135,0.1,0.0,68,0.00,CLR,,0.00,WeatherDisplay:10.37,2013-05-04 14:28:00,
2013-05-04 07:29:00,33.6,24.2,29.84,SE,135,0.1,0.0,68,0.00,CLR,,0.00,WeatherDisplay:10.37,2013-05-04 14:29:00,
2013-05-04 07:33:00,33.6,24.2,29.84,SE,135,0.1,0.0,68,0.00,CLR,,0.00,WeatherDisplay:10.37,2013-05-04 14:33:00,
2013-05-04 07:34:00,33.6,24.2,29.84,SE,135,0.1,0.0,68,0.00,CLR,,0.00,WeatherDisplay:10.37,2013-05-04 14:34:00,
2013-05-04 07:38:00,33.6,24.2,29.84,SE,135,0.1,0.0,68,0.00,CLR,,0.00,WeatherDisplay:10.37,2013-05-04 14:38:00,
2013-05-04 07:39:00,33.6,24.2,29.84,SE,135,0.1,0.0,68,0.00,CLR,,0.00,WeatherDisplay:10.37,2013-05-04 14:39:00,
2013-05-04 07:40:00,33.6,24.2,29.84,SE,135,0.1,0.0,68,0.00,CLR,,0.00,WeatherDisplay:10.37,2013-05-04 14:40:00,
2013-05-04 07:44:00,33.6,24.2,29.84,SE,135,0.1,0.0,68,0.00,CLR,,0.00,WeatherDisplay:10.37,2013-05-04 14:44:00,
2013-05-04 07:45:00,33.6,24.2,29.84,SE,135,0.1,0.0,68,0.00,CLR,,0.00,WeatherDisplay:10.37,2013-05-04 14:45:00,
2013-05-04 07:49:00,33.6,24.2,29.84,SE,135,0.1,0.0,68,0.00,CLR,,0.00,WeatherDisplay:10.37,2013-05-04 14:49:00,
2013-05-04 07:50:00,33.6,24.2,29.84,SE,135,0.1,0.0,68,0.00,CLR,,0.00,WeatherDisplay:10.37,2013-05-04 14:50:00,
2013-05-04 07:54:00,33.6,24.2,29.84,SE,135,0.1,0.0,68,0.00,CLR,,0.00,WeatherDisplay:10.37,2013-05-04 14:54:00,
2013-05-04 07:55:00,33.6,24.2,29.84,SE,135,0.1,0.0,68,0.00,CLR,,0.00,WeatherDisplay:10.37,2013-05-04 14:55:00,
2013-05-04 07:59:00,33.6,24.2,29.84,SE,135,0.1,0.0,68,0.00,CLR,,0.00,WeatherDisplay:10.37,2013-05-04 14:59:00,
2013-05-04 08:00:00,33.6,24.2,29.84,SE,135,0.1,0.0,68,0.00,CLR,,0.00,WeatherDisplay:10.37,2013-05-04 15:00:00,
2013-05-04 08:01:00,33.6,24.2,29.84,SE,135,0.1,0.0,68,0.00,CLR,,0.00,WeatherDisplay:10.37,2013-05-04 15:01:00,
2013-05-04 08:04:00,33.6,24.2,29.84,SE,135,0.1,0.0,68,0.00,CLR,,0.00,WeatherDisplay:10.37,2013-05-04 15:04:00,
2013-05-04 08:05:00,33.6,24.2,29.84,SE,135,0.1,0.0,68,0.00,CLR,,0.00,WeatherDisplay:10.37,2013-05-04 15:05:00,
2013-05-04 08:06:00,33.6,24.2,29.84,SE,135,0.1,0.0,68,0.00,CLR,,0.00,WeatherDisplay:10.37,2013-05-04 15:06:00,
2013-05-04 08:10:00,33.6,24.2,29.84,SE,135,0.1,0.0,68,0.00,CLR,,0.00,WeatherDisplay:10.37,2013-05-04 15:10:00,
2013-05-04 08:11:00,33.6,24.2,29.84,SE,135,0.1,0.0,68,0.00,CLR,,0.00,WeatherDisplay:10.37,2013-05-04 15:11:00,
2013-05-04 08:12:00,33.6,24.2,29.84,SE,135,0.1,0.0,68,0.00,CLR,,0.00,WeatherDisplay:10.37,2013-05-04 15:12:00,
2013-05-04 08:15:00,33.6,24.2,29.84,SE,135,0.1,0.0,68,0.00,CLR,,0.00,WeatherDisplay:10.37,2013-05-04 15:15:00,
2013-05-04 08:16:00,33.6,24.2,29.84,SE,135,0.1,0.0,68,0.00,CLR,,0.00,WeatherDisplay:10.37,2013-05-04 15:16:00,
2013-05-04 08:17:00,33.6,24.2,29.84,SE,135,0.1,0.0,68,0.00,CLR,,0.00,WeatherDisplay:10.37,2013-05-04 15:17:00,
2013-05-04 08:20:00,33.6,24.2,29.84,SE,135,0.1,0.0,68,0.00,CLR,,0.00,WeatherDisplay:10.37,2013-05-04 15:20:00,
2013-05-04 08:21:00,33.6,24.2,29.84,SE,135,0.1,0.0,68,0.00,CLR,,0.00,WeatherDisplay:10.37,2013-05-04 15:21:00,
2013-05-04 08:22:00,33.6,24.2,29.84,SE,135,0.1,0.0,68,0.00,CLR,,0.00,WeatherDisplay:10.37,2013-05-04 15:22:00,
2013-05-04 08:26:00,33.6,24.2,29.84,SE,135,0.1,0.0,68,0.00,CLR,,0.00,WeatherDisplay:10.37,2013-05-04 15:26:00,
2013-05-04 08:27:00,33.6,24.2,29.84,SE,135,0.1,0.0,68,0.00,CLR,,0.00,WeatherDisplay:10.37,2013-05-04 15:27:00,
2013-05-04 08:31:00,33.6,24.2,29.84,SE,135,0.1,0.0,68,0.00,CLR,,0.00,WeatherDisplay:10.37,2013-05-04 15:31:00,
2013-05-04 08:32:00,33.6,24.2,29.84,SE,135,0.1,0.0,68,0.00,CLR,,0.00,WeatherDisplay:10.37,2013-05-04 15:32:00,
2013-05-04 08:33:00,33.6,24.2,29.84,SE,135,0.1,0.0,68,0.00,CLR,,0.00,WeatherDisplay:10.37,2013-05-04 15:33:00,
2013-05-04 08:36:00,33.6,24.2,29.84,SE,135,0.1,0.0,68,0.00,CLR,,0.00,WeatherDisplay:10.37,2013-05-04 15:36:00,
2013-05-04 08:37:00,33.6,24.2,29.84,SE,135,0.1,0.0,68,0.00,CLR,,0.00,WeatherDisplay:10.37,2013-05-04 15:37:00,
2013-05-04 08:38:00,33.6,24.2,29.84,SE,135,0.1,0.0,68,0.00,CLR,,0.00,WeatherDisplay:10.37,2013-05-04 15:38:00,
2013-05-04 08:42:00,33.6,24.2,29.84,SE,135,0.1,0.0,68,0.00,CLR,,0.00,WeatherDisplay:10.37,2013-05-04 15:42:00,
2013-05-04 08:43:00,33.6,24.2,29.84,SE,135,0.1,0.0,68,0.00,CLR,,0.00,WeatherDisplay:10.37,2013-05-04 15:43:00,
2013-05-04 08:47:00,33.6,24.2,29.84,SE,135,0.1,0.0,68,0.00,CLR,,0.00,WeatherDisplay:10.37,2013-05-04 15:47:00,
2013-05-04 08:48:00,33.6,24.2,29.84,SE,135,0.1,0.0,68,0.00,CLR,,0.00,WeatherDisplay:10.37,2013-05-04 15:48:00,
2013-05-04 08:49:00,33.6,24.2,29.84,SE,135,0.1,0.0,68,0.00,CLR,,0.00,WeatherDisplay:10.37,2013-05-04 15:49:00,
2013-05-04 08:52:00,33.6,24.2,29.84,SE,135,0.1,0.0,68,0.00,CLR,,0.00,WeatherDisplay:10.37,2013-05-04 15:52:00,
2013-05-04 08:53:00,33.6,24.2,29.84,SE,135,0.1,0.0,68,0.00,CLR,,0.00,WeatherDisplay:10.37,2013-05-04 15:53:00,
2013-05-04 08:54:00,33.6,24.2,29.84,SE,135,0.1,0.0,68,0.00,CLR,,0.00,WeatherDisplay:10.37,2013-05-04 15:54:00,
2013-05-04 08:57:00,33.6,24.2,29.84,SE,135,0.1,0.0,68,0.00,CLR,,0.00,WeatherDisplay:10.37,2013-05-04 15:57:00,
2013-05-04 08:58:00,33.6,24.2,29.84,SE,135,0.1,0.0,68,0.00,CLR,,0.00,WeatherDisplay:10.37,2013-05-04 15:58:00,
2013-05-04 09:00:00,33.6,24.2,29.84,SE,135,0.1,0.0,68,0.00,CLR,,0.00,WeatherDisplay:10.37,2013-05-04 16:00:00,
2013-05-04 09:03:00,33.6,24.2,29.84,SE,135,0.1,0.0,68,0.00,CLR,,0.00,WeatherDisplay:10.37,2013-05-04 16:03:00,
2013-05-04 09:04:00,33.6,24.2,29.84,SE,135,0.1,0.0,68,0.00,CLR,,0.00,WeatherDisplay:10.37,2013-05-04 16:04:00,
2013-05-04 09:05:00,33.6,24.2,29.84,SE,135,0.1,0.0,68,0.00,CLR,,0.00,WeatherDisplay:10.37,2013-05-04 16:05:00,
2013-05-04 09:08:00,33.6,24.2,29.84,SE,135,0.1,0.0,68,0.00,CLR,,0.00,WeatherDisplay:10.37,2013-05-04 16:08:00,
2013-05-04 09:09:00,33.6,24.2,29.84,SE,135,0.1,0.0,68,0.00,CLR,,0.00,WeatherDisplay:10.37,2013-05-04 16:09:00,
2013-05-04 09:10:00,33.6,24.2,29.84,SE,135,0.1,0.0,68,0.00,CLR,,0.00,WeatherDisplay:10.37,2013-05-04 16:10:00,
2013-05-04 09:13:00,33.6,24.2,29.84,SE,135,0.1,0.0,68,0.00,CLR,,0.00,WeatherDisplay:10.37,2013-05-04 16:13:00,
2013-05-04 09:14:00,33.6,24.2,29.84,SE,135,0.1,0.0,68,0.00,CLR,,0.00,WeatherDisplay:10.37,2013-05-04 16:14:00,
2013-05-04 09:15:00,33.6,24.2,29.84,SE,135,0.1,0.0,68,0.00,CLR,,0.00,WeatherDisplay:10.37,2013-05-04 16:15:00,
2013-05-04 09:18:00,33.6,24.2,29.84,SE,135,0.1,0.0,68,0.00,CLR,,0.00,WeatherDisplay:10.37,2013-05-04 16:18:00,
2013-05-04 09:19:00,33.6,24.2,29.84,SE,135,0.1,0.0,68,0.00,CLR,,0.00,WeatherDisplay:10.37,2013-05-04 16:19:00,
2013-05-04 09:20:00,33.6,24.2,29.84,SE,135,0.1,0.0,68,0.00,CLR,,0.00,WeatherDisplay:10.37,2013-05-04 16:20:00,
2013-05-04 09:23:00,33.6,24.2,29.84,SE,135,0.1,0.0,68,0.00,CLR,,0.00,WeatherDisplay:10.37,2013-05-04 16:23:00,
2013-05-04 09:24:00,33.6,24.2,29.84,SE,135,0.1,0.0,68,0.00,CLR,,0.00,WeatherDisplay:10.37,2013-05-04 16:24:00,
2013-05-04 09:25:00,33.6,24.2,29.84,SE,135,0.1,0.0,68,0.00,CLR,,0.00,WeatherDisplay:10.37,2013-05-04 16:25:00,
2013-05-04 09:28:00,33.6,24.2,29.84,SE,135,0.1,0.0,68,0.00,CLR,,0.00,WeatherDisplay:10.37,2013-05-04 16:28:00,
2013-05-04 09:29:00,33.6,24.2,29.84,SE,135,0.1,0.0,68,0.00,CLR,,0.00,WeatherDisplay:10.37,2013-05-04 16:29:00,
2013-05-04 09:30:00,33.6,24.2,29.84,SE,135,0.1,0.0,68,0.00,CLR,,0.00,WeatherDisplay:10.37,2013-05-04 16:30:00,
2013-05-04 09:33:00,33.6,24.2,29.84,SE,135,0.1,0.0,68,0.00,CLR,,0.00,WeatherDisplay:10.37,2013-05-04 16:33:00,
2013-05-04 09:34:00,33.6,24.2,29.84,SE,135,0.1,0.0,68,0.00,CLR,,0.00,WeatherDisplay:10.37,2013-05-04 16:34:00,
2013-05-04 09:35:00,33.6,24.2,29.84,SE,135,0.0,0.0,68,0.00,CLR,CLR,0.00,WeatherDisplay:10.37,2013-05-04 16:35:00,
2013-05-04 09:39:00,33.6,24.2,29.84,SE,135,0.1,0.0,68,0.00,CLR,,0.00,WeatherDisplay:10.37,2013-05-04 16:39:00,
2013-05-04 09:40:00,33.6,24.2,29.84,SE,135,0.1,0.0,68,0.00,CLR,,0.00,WeatherDisplay:10.37,2013-05-04 16:40:00,
2013-05-04 09:44:00,33.6,24.2,29.84,SE,135,0.1,0.0,68,0.00,CLR,,0.00,WeatherDisplay:10.37,2013-05-04 16:44:00,
2013-05-04 09:45:00,33.6,24.2,29.84,SE,135,0.1,0.0,68,0.00,CLR,,0.00,WeatherDisplay:10.37,2013-05-04 16:45:00,
2013-05-04 09:46:00,33.6,24.2,29.84,SE,135,0.1,0.0,68,0.00,CLR,,0.00,WeatherDisplay:10.37,2013-05-04 16:46:00,
2013-05-04 09:49:00,33.6,24.2,29.84,SE,135,0.1,0.0,68,0.00,CLR,,0.00,WeatherDisplay:10.37,2013-05-04 16:49:00,
2013-05-04 09:50:00,33.6,24.2,29.84,SE,135,0.1,0.0,68,0.00,CLR,,0.00,WeatherDisplay:10.37,2013-05-04 16:50:00,
2013-05-04 09:51:00,33.6,24.2,29.84,SE,135,0.1,0.0,68,0.00,CLR,,0.00,WeatherDisplay:10.37,2013-05-04 16:51:00,
2013-05-04 09:54:00,33.6,24.2,29.84,SE,135,0.1,0.0,68,0.00,CLR,,0.00,WeatherDisplay:10.37,2013-05-04 16:54:00,
2013-05-04 09:55:00,33.6,24.2,29.84,SE,135,0.1,0.0,68,0.00,CLR,,0.00,WeatherDisplay:10.37,2013-05-04 16:55:00,
2013-05-04 09:56:00,33.6,24.2,29.84,SE,135,0.1,0.0,68,0.00,CLR,,0.00,WeatherDisplay:10.37,2013-05-04 16:56:00,
2013-05-04 09:59:00,33.6,24.2,29.84,SE,135,0.1,0.0,68,0.00,CLR,,0.00,WeatherDisplay:10.37,2013-05-04 16:59:00,
2013-05-04 10:00:00,33.6,24.2,29.84,SE,135,0.1,0.0,68,0.00,CLR,,0.00,WeatherDisplay:10.37,2013-05-04 17:00:00,
2013-05-04 10:01:00,33.6,24.2,29.84,SE,135,0.1,0.0,68,0.00,CLR,,0.00,WeatherDisplay:10.37,2013-05-04 17:01:00,
2013-05-04 10:02:00,33.6,24.2,29.84,SE,135,0.1,0.0,68,0.00,CLR,,0.00,WeatherDisplay:10.37,2013-05-04 17:02:00,
2013-05-04 10:04:00,33.6,24.2,29.84,SE,135,0.1,0.0,68,0.00,CLR,,0.00,WeatherDisplay:10.37,2013-05-04 17:04:00,
2013-05-04 10:05:00,33.6,24.2,29.84,SE,135,0.1,0.0,68,0.00,CLR,,0.00,WeatherDisplay:10.37,2013-05-04 17:05:00,
2013-05-04 10:06:00,33.6,24.2,29.84,SE,135,0.1,0.0,68,0.00,CLR,,0.00,WeatherDisplay:10.37,2013-05-04 17:06:00,
2013-05-04 10:07:00,33.6,24.2,29.84,SE,135,0.1,0.0,68,0.00,CLR,,0.00,WeatherDisplay:10.37,2013-05-04 17:07:00,
2013-05-04 10:09:00,33.6,24.2,29.84,SE,135,0.1,0.0,68,0.00,CLR,,0.00,WeatherDisplay:10.37,2013-05-04 17:09:00,
2013-05-04 10:11:00,33.6,24.2,29.84,SE,135,0.1,0.0,68,0.00,CLR,,0.00,WeatherDisplay:10.37,2013-05-04 17:11:00,
2013-05-04 10:12:00,33.6,24.2,29.84,SE,135,0.1,0.0,68,0.00,CLR,,0.00,WeatherDisplay:10.37,2013-05-04 17:12:00,
2013-05-04 10:14:00,33.6,24.2,29.84,SE,135,0.1,0.0,68,0.00,CLR,,0.00,WeatherDisplay:10.37,2013-05-04 17:14:00,
2013-05-04 10:16:00,33.6,24.2,29.84,SE,135,0.1,0.0,68,0.00,CLR,,0.00,WeatherDisplay:10.37,2013-05-04 17:16:00,
2013-05-04 10:17:00,33.6,24.2,29.84,SE,135,0.1,0.0,68,0.00,CLR,,0.00,WeatherDisplay:10.37,2013-05-04 17:17:00,
2013-05-04 10:18:00,33.6,24.2,29.84,SE,135,0.1,0.0,68,0.00,CLR,,0.00,WeatherDisplay:10.37,2013-05-04 17:18:00,
2013-05-04 10:20:00,33.6,24.2,29.84,SE,135,0.1,0.0,68,0.00,CLR,,0.00,WeatherDisplay:10.37,2013-05-04 17:20:00,
2013-05-04 10:21:00,33.6,24.2,29.84,SE,135,0.1,0.0,68,0.00,CLR,,0.00,WeatherDisplay:10.37,2013-05-04 17:21:00,
2013-05-04 10:22:00,33.6,24.2,29.84,SE,135,0.1,0.0,68,0.00,CLR,,0.00,WeatherDisplay:10.37,2013-05-04 17:22:00,
2013-05-04 10:23:00,33.6,24.2,29.84,SE,135,0.1,0.0,68,0.00,CLR,,0.00,WeatherDisplay:10.37,2013-05-04 17:23:00,
2013-05-04 10:25:00,33.6,24.2,29.84,SE,135,0.1,0.0,68,0.00,CLR,,0.00,WeatherDisplay:10.37,2013-05-04 17:25:00,
2013-05-04 10:26:00,33.6,24.2,29.84,SE,135,0.1,0.0,68,0.00,CLR,,0.00,WeatherDisplay:10.37,2013-05-04 17:26:00,
2013-05-04 10:27:00,33.6,24.2,29.84,SE,135,0.1,0.0,68,0.00,CLR,,0.00,WeatherDisplay:10.37,2013-05-04 17:27:00,
2013-05-04 10:28:00,33.6,24.2,29.84,SE,135,0.1,0.0,68,0.00,CLR,,0.00,WeatherDisplay:10.37,2013-05-04 17:28:00,
2013-05-04 10:30:00,33.6,24.2,29.84,SE,135,0.1,0.0,68,0.00,CLR,,0.00,WeatherDisplay:10.37,2013-05-04 17:30:00,
2013-05-04 10:32:00,33.6,24.2,29.84,SE,135,0.1,0.0,68,0.00,CLR,,0.00,WeatherDisplay:10.37,2013-05-04 17:32:00,
2013-05-04 10:34:00,33.6,24.2,29.84,SE,135,0.1,0.0,68,0.00,CLR,,0.00,WeatherDisplay:10.37,2013-05-04 17:34:00,
2013-05-04 10:35:00,33.6,24.2,29.84,SE,135,0.1,0.0,68,0.00,CLR,,0.00,WeatherDisplay:10.37,2013-05-04 17:35:00,
2013-05-04 10:37:00,33.6,24.2,29.84,SE,135,0.1,0.0,68,0.00,CLR,,0.00,WeatherDisplay:10.37,2013-05-04 17:37:00,
2013-05-04 10:38:00,33.6,24.2,29.84,SE,135,0.1,0.0,68,0.00,CLR,,0.00,WeatherDisplay:10.37,2013-05-04 17:38:00,
2013-05-04 10:39:00,33.6,24.2,29.84,SE,135,0.1,0.0,68,0.00,CLR,,0.00,WeatherDisplay:10.37,2013-05-04 17:39:00,
2013-05-04 10:40:00,33.6,24.2,29.84,SE,135,0.1,0.0,68,0.00,CLR,,0.00,WeatherDisplay:10.37,2013-05-04 17:40:00,
2013-05-04 10:42:00,33.6,24.2,29.84,SE,135,0.1,0.0,68,0.00,CLR,,0.00,WeatherDisplay:10.37,2013-05-04 17:42:00,
2013-05-04 10:43:00,33.6,24.2,29.84,SE,135,0.1,0.0,68,0.00,CLR,,0.00,WeatherDisplay:10.37,2013-05-04 17:43:00,
2013-05-04 10:44:00,33.6,24.2,29.84,SE,135,0.1,0.0,68,0.00,CLR,,0.00,WeatherDisplay:10.37,2013-05-04 17:44:00,
2013-05-04 10:45:00,33.6,24.2,29.84,SE,135,0.1,0.0,68,0.00,CLR,,0.00,WeatherDisplay:10.37,2013-05-04 17:45:00,
2013-05-04 10:47:00,33.6,24.2,29.84,SE,135,0.1,0.0,68,0.00,CLR,,0.00,WeatherDisplay:10.37,2013-05-04 17:47:00,
2013-05-04 10:48:00,33.6,24.2,29.84,SE,135,0.1,0.0,68,0.00,CLR,,0.00,WeatherDisplay:10.37,2013-05-04 17:48:00,
2013-05-04 10:49:00,33.6,24.2,29.84,SE,135,0.1,0.0,68,0.00,CLR,,0.00,WeatherDisplay:10.37,2013-05-04 17:49:00,
2013-05-04 10:51:00,33.6,24.2,29.84,SE,135,0.1,0.0,68,0.00,CLR,,0.00,WeatherDisplay:10.37,2013-05-04 17:51:00,
2013-05-04 10:52:00,33.6,24.2,29.84,SE,135,0.1,0.0,68,0.00,CLR,,0.00,WeatherDisplay:10.37,2013-05-04 17:52:00,
2013-05-04 10:53:00,33.6,24.2,29.84,SE,135,0.1,0.0,68,0.00,CLR,,0.00,WeatherDisplay:10.37,2013-05-04 17:53:00,
2013-05-04 10:54:00,33.6,24.2,29.84,SE,135,0.1,0.0,68,0.00,CLR,,0.00,WeatherDisplay:10.37,2013-05-04 17:54:00,
2013-05-04 10:56:00,33.6,24.2,29.84,SE,135,0.1,0.0,68,0.00,CLR,,0.00,WeatherDisplay:10.37,2013-05-04 17:56:00,
2013-05-04 10:57:00,33.6,24.2,29.84,SE,135,0.1,0.0,68,0.00,CLR,,0.00,WeatherDisplay:10.37,2013-05-04 17:57:00,
2013-05-04 10:58:00,33.6,24.2,29.84,SE,135,0.1,0.0,68,0.00,CLR,,0.00,WeatherDisplay:10.37,2013-05-04 17:58:00,
2013-05-04 10:59:00,33.6,24.2,29.84,SE,135,0.1,0.0,68,0.00,CLR,,0.00,WeatherDisplay:10.37,2013-05-04 17:59:00,
2013-05-04 11:01:00,33.6,24.2,29.84,SE,135,0.1,0.0,68,0.00,CLR,,0.00,WeatherDisplay:10.37,2013-05-04 18:01:00,
2013-05-04 11:03:00,33.6,24.2,29.84,SE,135,0.1,0.0,68,0.00,CLR,,0.00,WeatherDisplay:10.37,2013-05-04 18:03:00,
2013-05-04 11:04:00,33.6,24.2,29.84,SE,135,0.1,0.0,68,0.00,CLR,,0.00,WeatherDisplay:10.37,2013-05-04 18:04:00,
2013-05-04 11:06:00,33.6,24.2,29.84,SE,135,0.1,0.0,68,0.00,CLR,,0.00,WeatherDisplay:10.37,2013-05-04 18:06:00,
2013-05-04 11:08:00,33.6,24.2,29.84,SE,135,0.1,0.0,68,0.00,CLR,,0.00,WeatherDisplay:10.37,2013-05-04 18:08:00,
2013-05-04 11:09:00,33.6,24.2,29.84,SE,135,0.1,0.0,68,0.00,CLR,,0.00,WeatherDisplay:10.37,2013-05-04 18:09:00,
2013-05-04 11:10:00,33.6,24.2,29.84,SE,135,0.1,0.0,68,0.00,CLR,,0.00,WeatherDisplay:10.37,2013-05-04 18:10:00,
2013-05-04 11:11:00,33.6,24.2,29.84,SE,135,0.1,0.0,68,0.00,CLR,,0.00,WeatherDisplay:10.37,2013-05-04 18:11:00,
2013-05-04 11:13:00,33.6,24.2,29.84,SE,135,0.1,0.0,68,0.00,CLR,,0.00,WeatherDisplay:10.37,2013-05-04 18:13:00,
2013-05-04 11:15:00,33.6,24.2,29.84,SE,135,0.1,0.0,68,0.00,CLR,,0.00,WeatherDisplay:10.37,2013-05-04 18:15:00,
2013-05-04 11:16:00,33.6,24.2,29.84,SE,135,0.1,0.0,68,0.00,CLR,,0.00,WeatherDisplay:10.37,2013-05-04 18:16:00,
2013-05-04 11:18:00,33.6,24.2,29.84,SE,135,0.1,0.0,68,0.00,CLR,,0.00,WeatherDisplay:10.37,2013-05-04 18:18:00,
2013-05-04 11:20:00,33.6,24.2,29.84,SE,135,0.0,0.0,68,0.00,CLR,CLR,0.00,WeatherDisplay:10.37,2013-05-04 18:20:00,
2013-05-04 11:21:00,33.6,24.2,29.84,SE,135,0.1,0.0,68,0.00,CLR,,0.00,WeatherDisplay:10.37,2013-05-04 18:21:00,
2013-05-04 11:23:00,33.6,24.2,29.84,SE,135,0.1,0.0,68,0.00,CLR,,0.00,WeatherDisplay:10.37,2013-05-04 18:23:00,
2013-05-04 11:25:00,33.6,24.2,29.84,SE,135,0.1,0.0,68,0.00,CLR,,0.00,WeatherDisplay:10.37,2013-05-04 18:25:00,
2013-05-04 11:26:00,33.6,24.2,29.84,SE,135,0.1,0.0,68,0.00,CLR,,0.00,WeatherDisplay:10.37,2013-05-04 18:26:00,
2013-05-04 11:28:00,33.6,24.2,29.84,SE,135,0.1,0.0,68,0.00,CLR,,0.00,WeatherDisplay:10.37,2013-05-04 18:28:00,
2013-05-04 11:30:00,33.6,24.2,29.84,SE,135,0.1,0.0,68,0.00,CLR,,0.00,WeatherDisplay:10.37,2013-05-04 18:30:00,
2013-05-04 11:31:00,33.6,24.2,29.84,SE,135,0.1,0.0,68,0.00,CLR,,0.00,WeatherDisplay:10.37,2013-05-04 18:31:00,
2013-05-04 11:34:00,33.6,24.2,29.84,SE,135,0.1,0.0,68,0.00,CLR,,0.00,WeatherDisplay:10.37,2013-05-04 18:34:00,
2013-05-04 11:35:00,33.6,24.2,29.84,SE,135,0.1,0.0,68,0.00,CLR,,0.00,WeatherDisplay:10.37,2013-05-04 18:35:00,
2013-05-04 11:36:00,33.6,24.2,29.84,SE,135,0.1,0.0,68,0.00,CLR,,0.00,WeatherDisplay:10.37,2013-05-04 18:36:00,
2013-05-04 11:37:00,33.6,24.2,29.84,SE,135,0.1,0.0,68,0.00,CLR,,0.00,WeatherDisplay:10.37,2013-05-04 18:37:00,
2013-05-04 11:39:00,33.6,24.2,29.84,SE,135,0.1,0.0,68,0.00,CLR,,0.00,WeatherDisplay:10.37,2013-05-04 18:39:00,
2013-05-04 11:41:00,33.6,24.2,29.84,SE,135,0.1,0.0,68,0.00,CLR,,0.00,WeatherDisplay:10.37,2013-05-04 18:41:00,
2013-05-04 11:42:00,33.6,24.2,29.84,SE,135,0.1,0.0,68,0.00,CLR,,0.00,WeatherDisplay:10.37,2013-05-04 18:42:00,
2013-05-04 11:44:00,33.6,24.2,29.84,SE,135,0.1,0.0,68,0.00,CLR,,0.00,WeatherDisplay:10.37,2013-05-04 18:44:00,
2013-05-04 11:45:00,46.2,28.1,29.66,SSE,158,1.0,3.0,49,0.00,CLR,CLR,0.00,WeatherDisplay:10.37,2013-05-04 18:45:00,
2013-05-04 11:46:00,33.6,24.2,29.84,SE,135,0.1,0.0,68,0.00,CLR,,0.00,WeatherDisplay:10.37,2013-05-04 18:46:00,
2013-05-04 11:47:00,33.6,24.2,29.84,SE,135,0.1,0.0,68,0.00,CLR,,0.00,WeatherDisplay:10.37,2013-05-04 18:47:00,
2013-05-04 11:49:00,33.6,24.2,29.84,SE,135,0.1,0.0,68,0.00,CLR,,0.00,WeatherDisplay:10.37,2013-05-04 18:49:00,
2013-05-04 11:50:00,46.2,28.1,29.66,SSE,158,1.0,3.0,49,0.00,CLR,CLR,0.00,WeatherDisplay:10.37,2013-05-04 18:50:00,
2013-05-04 11:51:00,33.6,24.2,29.84,SE,135,0.1,0.0,68,0.00,CLR,,0.00,WeatherDisplay:10.37,2013-05-04 18:51:00,
2013-05-04 11:52:00,33.6,24.2,29.84,SE,135,0.1,0.0,68,0.00,CLR,,0.00,WeatherDisplay:10.37,2013-05-04 18:52:00,
2013-05-04 11:54:00,33.6,24.2,29.84,SE,135,0.1,0.0,68,0.00,CLR,,0.00,WeatherDisplay:10.37,2013-05-04 18:54:00,
2013-05-04 11:56:00,33.6,24.2,29.84,SE,135,0.1,0.0,68,0.00,CLR,,0.00,WeatherDisplay:10.37,2013-05-04 18:56:00,
2013-05-04 11:57:00,33.6,24.2,29.84,SE,135,0.1,0.0,68,0.00,CLR,,0.00,WeatherDisplay:10.37,2013-05-04 18:57:00,
2013-05-04 11:59:00,33.6,24.2,29.84,SE,135,0.1,0.0,68,0.00,CLR,,0.00,WeatherDisplay:10.37,2013-05-04 18:59:00,
2013-05-04 12:00:00,46.8,28.6,29.65,SSE,155,1.0,2.0,49,0.00,CLR,CLR,0.00,WeatherDisplay:10.37,2013-05-04 19:00:00,
2013-05-04 12:01:00,33.6,24.2,29.84,SE,135,0.1,0.0,68,0.00,CLR,,0.00,WeatherDisplay:10.37,2013-05-04 19:01:00,
2013-05-04 12:02:00,33.6,24.2,29.84,SE,135,0.1,0.0,68,0.00,CLR,,0.00,WeatherDisplay:10.37,2013-05-04 19:02:00,
2013-05-04 12:03:00,33.6,24.2,29.84,SE,135,0.1,0.0,68,0.00,CLR,,0.00,WeatherDisplay:10.37,2013-05-04 19:03:00,
2013-05-04 12:05:00,33.6,24.2,29.84,SE,135,0.1,0.0,68,0.00,CLR,,0.00,WeatherDisplay:10.37,2013-05-04 19:05:00,
2013-05-04 12:06:00,33.6,24.2,29.84,SE,135,0.1,0.0,68,0.00,CLR,,0.00,WeatherDisplay:10.37,2013-05-04 19:06:00,
2013-05-04 12:07:00,33.6,24.2,29.84,SE,135,0.1,0.0,68,0.00,CLR,,0.00,WeatherDisplay:10.37,2013-05-04 19:07:00,
2013-05-04 12:08:00,33.6,24.2,29.84,SE,135,0.1,0.0,68,0.00,CLR,,0.00,WeatherDisplay:10.37,2013-05-04 19:08:00,
2013-05-04 12:10:00,33.6,24.2,29.84,SE,135,0.1,0.0,68,0.00,CLR,,0.00,WeatherDisplay:10.37,2013-05-04 19:10:00,
2013-05-04 12:12:00,33.6,24.2,29.84,SE,135,0.1,0.0,68,0.00,CLR,,0.00,WeatherDisplay:10.37,2013-05-04 19:12:00,
2013-05-04 12:13:00,33.6,24.2,29.84,SE,135,0.1,0.0,68,0.00,CLR,,0.00,WeatherDisplay:10.37,2013-05-04 19:13:00,
2013-05-04 12:15:00,33.6,24.2,29.84,SE,135,0.1,0.0,68,0.00,CLR,,0.00,WeatherDisplay:10.37,2013-05-04 19:15:00,
2013-05-04 12:17:00,33.6,24.2,29.84,SE,135,0.1,0.0,68,0.00,CLR,,0.00,WeatherDisplay:10.37,2013-05-04 19:17:00,
2013-05-04 12:18:00,33.6,24.2,29.84,SE,135,0.1,0.0,68,0.00,CLR,,0.00,WeatherDisplay:10.37,2013-05-04 19:18:00,
2013-05-04 12:19:00,33.6,24.2,29.84,SE,135,0.1,0.0,68,0.00,CLR,,0.00,WeatherDisplay:10.37,2013-05-04 19:19:00,
2013-05-04 12:20:00,33.6,24.2,29.84,SE,135,0.1,0.0,68,0.00,CLR,,0.00,WeatherDisplay:10.37,2013-05-04 19:20:00,
2013-05-04 12:22:00,33.6,24.2,29.84,SE,135,0.1,0.0,68,0.00,CLR,,0.00,WeatherDisplay:10.37,2013-05-04 19:22:00,
2013-05-04 12:23:00,33.6,24.2,29.84,SE,135,0.1,0.0,68,0.00,CLR,,0.00,WeatherDisplay:10.37,2013-05-04 19:23:00,
2013-05-04 12:24:00,33.6,24.2,29.84,SE,135,0.1,0.0,68,0.00,CLR,,0.00,WeatherDisplay:10.37,2013-05-04 19:24:00,
2013-05-04 12:25:00,33.6,24.2,29.84,SE,135,0.1,0.0,68,0.00,CLR,,0.00,WeatherDisplay:10.37,2013-05-04 19:25:00,
2013-05-04 12:27:00,33.6,24.2,29.84,SE,135,0.1,0.0,68,0.00,CLR,,0.00,WeatherDisplay:10.37,2013-05-04 19:27:00,
2013-05-04 12:29:00,33.6,24.2,29.84,SE,135,0.1,0.0,68,0.00,CLR,,0.00,WeatherDisplay:10.37,2013-05-04 19:29:00,
2013-05-04 12:30:00,33.6,24.2,29.84,SE,135,0.1,0.0,68,0.00,CLR,,0.00,WeatherDisplay:10.37,2013-05-04 19:30:00,
2013-05-04 12:32:00,33.6,24.2,29.84,SE,135,0.1,0.0,68,0.00,CLR,,0.00,WeatherDisplay:10.37,2013-05-04 19:32:00,
2013-05-04 12:33:00,33.6,24.2,29.84,SE,135,0.1,0.0,68,0.00,CLR,,0.00,WeatherDisplay:10.37,2013-05-04 19:33:00,
2013-05-04 12:34:00,33.6,24.2,29.84,SE,135,0.1,0.0,68,0.00,CLR,,0.00,WeatherDisplay:10.37,2013-05-04 19:34:00,
2013-05-04 12:35:00,46.4,28.3,29.64,SE,137,1.0,2.0,49,0.00,CLR,CLR,0.00,WeatherDisplay:10.37,2013-05-04 19:35:00,
2013-05-04 12:36:00,33.6,24.2,29.84,SE,135,0.1,0.0,68,0.00,CLR,,0.00,WeatherDisplay:10.37,2013-05-04 19:36:00,
2013-05-04 12:38:00,33.6,24.2,29.84,SE,135,0.1,0.0,68,0.00,CLR,,0.00,WeatherDisplay:10.37,2013-05-04 19:38:00,
2013-05-04 12:39:00,33.6,24.2,29.84,SE,135,0.1,0.0,68,0.00,CLR,,0.00,WeatherDisplay:10.37,2013-05-04 19:39:00,
2013-05-04 12:40:00,46.4,28.3,29.64,SSE,152,1.0,3.0,49,0.00,CLR,CLR,0.00,WeatherDisplay:10.37,2013-05-04 19:40:00,
2013-05-04 12:41:00,33.6,24.2,29.84,SE,135,0.1,0.0,68,0.00,CLR,,0.00,WeatherDisplay:10.37,2013-05-04 19:41:00,
2013-05-04 12:43:00,33.6,24.2,29.84,SE,135,0.1,0.0,68,0.00,CLR,,0.00,WeatherDisplay:10.37,2013-05-04 19:43:00,
2013-05-04 12:44:00,33.6,24.2,29.84,SE,135,0.1,0.0,68,0.00,CLR,,0.00,WeatherDisplay:10.37,2013-05-04 19:44:00,
2013-05-04 12:45:00,33.6,24.2,29.84,SE,135,0.1,0.0,68,0.00,CLR,,0.00,WeatherDisplay:10.37,2013-05-04 19:45:00,
2013-05-04 12:46:00,33.6,24.2,29.84,SE,135,0.1,0.0,68,0.00,CLR,,0.00,WeatherDisplay:10.37,2013-05-04 19:46:00,
2013-05-04 12:48:00,33.6,24.2,29.84,SE,135,0.1,0.0,68,0.00,CLR,,0.00,WeatherDisplay:10.37,2013-05-04 19:48:00,
2013-05-04 12:49:00,33.6,24.2,29.84,SE,135,0.1,0.0,68,0.00,CLR,,0.00,WeatherDisplay:10.37,2013-05-04 19:49:00,
2013-05-04 12:50:00,33.6,24.2,29.84,SE,135,0.1,0.0,68,0.00,CLR,,0.00,WeatherDisplay:10.37,2013-05-04 19:50:00,
2013-05-04 12:51:00,33.6,24.2,29.84,SE,135,0.1,0.0,68,0.00,CLR,,0.00,WeatherDisplay:10.37,2013-05-04 19:51:00,
2013-05-04 12:53:00,33.6,24.2,29.84,SE,135,0.1,0.0,68,0.00,CLR,,0.00,WeatherDisplay:10.37,2013-05-04 19:53:00,
2013-05-04 12:54:00,33.6,24.2,29.84,SE,135,0.1,0.0,68,0.00,CLR,,0.00,WeatherDisplay:10.37,2013-05-04 19:54:00,
2013-05-04 12:55:00,33.6,24.2,29.84,SE,135,0.1,0.0,68,0.00,CLR,,0.00,WeatherDisplay:10.37,2013-05-04 19:55:00,
2013-05-04 12:56:00,33.6,24.2,29.84,SE,135,0.1,0.0,68,0.00,CLR,,0.00,WeatherDisplay:10.37,2013-05-04 19:56:00,
2013-05-04 12:58:00,33.6,24.2,29.84,SE,135,0.1,0.0,68,0.00,CLR,,0.00,WeatherDisplay:10.37,2013-05-04 19:58:00,
2013-05-04 12:59:00,33.6,24.2,29.84,SE,135,0.1,0.0,68,0.00,CLR,,0.00,WeatherDisplay:10.37,2013-05-04 19:59:00,
2013-05-04 13:00:00,33.6,24.2,29.84,SE,135,0.1,0.0,68,0.00,CLR,,0.00,WeatherDisplay:10.37,2013-05-04 20:00:00,
2013-05-04 13:01:00,33.6,24.2,29.84,SE,135,0.1,0.0,68,0.00,CLR,,0.00,WeatherDisplay:10.37,2013-05-04 20:01:00,
2013-05-04 13:03:00,33.6,24.2,29.84,SE,135,0.1,0.0,68,0.00,CLR,,0.00,WeatherDisplay:10.37,2013-05-04 20:03:00,
2013-05-04 13:04:00,33.6,24.2,29.84,SE,135,0.1,0.0,68,0.00,CLR,,0.00,WeatherDisplay:10.37,2013-05-04 20:04:00,
2013-05-04 13:05:00,33.6,24.2,29.84,SE,135,0.1,0.0,68,0.00,CLR,,0.00,WeatherDisplay:10.37,2013-05-04 20:05:00,
2013-05-04 13:06:00,33.6,24.2,29.84,SE,135,0.1,0.0,68,0.00,CLR,,0.00,WeatherDisplay:10.37,2013-05-04 20:06:00,
2013-05-04 13:08:00,33.6,24.2,29.84,SE,135,0.1,0.0,68,0.00,CLR,,0.00,WeatherDisplay:10.37,2013-05-04 20:08:00,
2013-05-04 13:09:00,33.6,24.2,29.84,SE,135,0.1,0.0,68,0.00,CLR,,0.00,WeatherDisplay:10.37,2013-05-04 20:09:00,
2013-05-04 13:10:00,33.6,24.2,29.84,SE,135,0.1,0.0,68,0.00,CLR,,0.00,WeatherDisplay:10.37,2013-05-04 20:10:00,
2013-05-04 13:11:00,33.6,24.2,29.84,SE,135,0.1,0.0,68,0.00,CLR,,0.00,WeatherDisplay:10.37,2013-05-04 20:11:00,
2013-05-04 13:13:00,33.6,24.2,29.84,SE,135,0.1,0.0,68,0.00,CLR,,0.00,WeatherDisplay:10.37,2013-05-04 20:13:00,
2013-05-04 13:15:00,33.6,24.2,29.84,SE,135,0.1,0.0,68,0.00,CLR,,0.00,WeatherDisplay:10.37,2013-05-04 20:15:00,
2013-05-04 13:16:00,33.6,24.2,29.84,SE,135,0.1,0.0,68,0.00,CLR,,0.00,WeatherDisplay:10.37,2013-05-04 20:16:00,
2013-05-04 13:18:00,33.6,24.2,29.84,SE,135,0.1,0.0,68,0.00,CLR,,0.00,WeatherDisplay:10.37,2013-05-04 20:18:00,
2013-05-04 13:20:00,33.6,24.2,29.84,SE,135,0.1,0.0,68,0.00,CLR,,0.00,WeatherDisplay:10.37,2013-05-04 20:20:00,
2013-05-04 13:21:00,33.6,24.2,29.84,SE,135,0.1,0.0,68,0.00,CLR,,0.00,WeatherDisplay:10.37,2013-05-04 20:21:00,
2013-05-04 13:22:00,33.6,24.2,29.84,SE,135,0.1,0.0,68,0.00,CLR,,0.00,WeatherDisplay:10.37,2013-05-04 20:22:00,
2013-05-04 13:23:00,33.6,24.2,29.84,SE,135,0.1,0.0,68,0.00,CLR,,0.00,WeatherDisplay:10.37,2013-05-04 20:23:00,
2013-05-04 13:25:00,46.2,28.1,29.62,SSE,163,1.0,3.0,49,0.00,CLR,CLR,0.00,WeatherDisplay:10.37,2013-05-04 20:25:00,
2013-05-04 13:26:00,33.6,24.2,29.84,SE,135,0.1,0.0,68,0.00,CLR,,0.00,WeatherDisplay:10.37,2013-05-04 20:26:00,
2013-05-04 13:27:00,33.6,24.2,29.84,SE,135,0.1,0.0,68,0.00,CLR,,0.00,WeatherDisplay:10.37,2013-05-04 20:27:00,
2013-05-04 13:28:00,33.6,24.2,29.84,SE,135,0.1,0.0,68,0.00,CLR,,0.00,WeatherDisplay:10.37,2013-05-04 20:28:00,
2013-05-04 13:29:00,33.6,24.2,29.84,SE,135,0.1,0.0,68,0.00,CLR,,0.00,WeatherDisplay:10.37,2013-05-04 20:29:00,
2013-05-04 13:30:00,46.2,28.1,29.62,SE,135,1.0,2.0,49,0.00,CLR,CLR,0.00,WeatherDisplay:10.37,2013-05-04 20:30:00,
2013-05-04 13:31:00,33.6,24.2,29.84,SE,135,0.1,0.0,68,0.00,CLR,,0.00,WeatherDisplay:10.37,2013-05-04 20:31:00,
2013-05-04 13:32:00,33.6,24.2,29.84,SE,135,0.1,0.0,68,0.00,CLR,,0.00,WeatherDisplay:10.37,2013-05-04 20:32:00,
2013-05-04 13:33:00,33.6,24.2,29.84,SE,135,0.1,0.0,68,0.00,CLR,,0.00,WeatherDisplay:10.37,2013-05-04 20:33:00,
2013-05-04 13:34:00,33.6,24.2,29.84,SE,135,0.1,0.0,68,0.00,CLR,,0.00,WeatherDisplay:10.37,2013-05-04 20:34:00,
2013-05-04 13:35:00,45.9,27.8,29.62,SE,138,1.0,2.0,49,0.00,CLR,CLR,0.00,WeatherDisplay:10.37,2013-05-04 20:35:00,
2013-05-04 13:36:00,33.6,24.2,29.84,SE,135,0.1,0.0,68,0.00,CLR,,0.00,WeatherDisplay:10.37,2013-05-04 20:36:00,
2013-05-04 13:37:00,33.6,24.2,29.84,SE,135,0.1,0.0,68,0.00,CLR,,0.00,WeatherDisplay:10.37,2013-05-04 20:37:00,
2013-05-04 13:38:00,33.6,24.2,29.84,SE,135,0.1,0.0,68,0.00,CLR,,0.00,WeatherDisplay:10.37,2013-05-04 20:38:00,
2013-05-04 13:39:00,33.6,24.2,29.84,SE,135,0.1,0.0,68,0.00,CLR,,0.00,WeatherDisplay:10.37,2013-05-04 20:39:00,
2013-05-04 13:40:00,45.9,27.8,29.61,SE,145,1.0,2.0,49,0.00,CLR,CLR,0.00,WeatherDisplay:10.37,2013-05-04 20:40:00,
2013-05-04 13:41:00,33.6,24.2,29.84,SE,135,0.1,0.0,68,0.00,CLR,,0.00,WeatherDisplay:10.37,2013-05-04 20:41:00,
2013-05-04 13:42:00,33.6,24.2,29.84,SE,135,0.1,0.0,68,0.00,CLR,,0.00,WeatherDisplay:10.37,2013-05-04 20:42:00,
2013-05-04 13:43:00,33.6,24.2,29.84,SE,135,0.1,0.0,68,0.00,CLR,,0.00,WeatherDisplay:10.37,2013-05-04 20:43:00,
2013-05-04 13:44:00,33.6,24.2,29.84,SE,135,0.1,0.0,68,0.00,CLR,,0.00,WeatherDisplay:10.37,2013-05-04 20:44:00,
2013-05-04 13:45:00,45.7,28.1,29.61,SE,135,1.0,2.0,50,0.00,CLR,CLR,0.00,WeatherDisplay:10.37,2013-05-04 20:45:00,
2013-05-04 13:46:00,33.6,24.2,29.84,SE,135,0.1,0.0,68,0.00,CLR,,0.00,WeatherDisplay:10.37,2013-05-04 20:46:00,
2013-05-04 13:47:00,33.6,24.2,29.84,SE,135,0.1,0.0,68,0.00,CLR,,0.00,WeatherDisplay:10.37,2013-05-04 20:47:00,
2013-05-04 13:48:00,33.6,24.2,29.84,SE,135,0.1,0.0,68,0.00,CLR,,0.00,WeatherDisplay:10.37,2013-05-04 20:48:00,
2013-05-04 13:49:00,33.6,24.2,29.84,SE,135,0.1,0.0,68,0.00,CLR,,0.00,WeatherDisplay:10.37,2013-05-04 20:49:00,
2013-05-04 13:50:00,45.5,27.4,29.61,SE,135,1.0,2.0,49,0.00,CLR,CLR,0.00,WeatherDisplay:10.37,2013-05-04 20:50:00,
2013-05-04 13:51:00,33.6,24.2,29.84,SE,135,0.1,0.0,68,0.00,CLR,,0.00,WeatherDisplay:10.37,2013-05-04 20:51:00,
2013-05-04 13:52:00,33.6,24.2,29.84,SE,135,0.1,0.0,68,0.00,CLR,,0.00,WeatherDisplay:10.37,2013-05-04 20:52:00,
2013-05-04 13:53:00,33.6,24.2,29.84,SE,135,0.1,0.0,68,0.00,CLR,,0.00,WeatherDisplay:10.37,2013-05-04 20:53:00,
2013-05-04 13:54:00,33.6,24.2,29.84,SE,135,0.1,0.0,68,0.00,CLR,,0.00,WeatherDisplay:10.37,2013-05-04 20:54:00,
2013-05-04 13:55:00,45.0,26.9,29.61,SE,135,1.0,0.0,49,0.00,CLR,CLR,0.00,WeatherDisplay:10.37,2013-05-04 20:55:00,
2013-05-04 13:56:00,33.6,24.2,29.84,SE,135,0.1,0.0,68,0.00,CLR,,0.00,WeatherDisplay:10.37,2013-05-04 20:56:00,
2013-05-04 13:57:00,33.6,24.2,29.84,SE,135,0.1,0.0,68,0.00,CLR,,0.00,WeatherDisplay:10.37,2013-05-04 20:57:00,
2013-05-04 13:58:00,33.6,24.2,29.84,SE,135,0.1,0.0,68,0.00,CLR,,0.00,WeatherDisplay:10.37,2013-05-04 20:58:00,
2013-05-04 13:59:00,33.6,24.2,29.84,SE,135,0.1,0.0,68,0.00,CLR,,0.00,WeatherDisplay:10.37,2013-05-04 20:59:00,
2013-05-04 14:00:00,44.8,26.8,29.62,SE,138,1.0,2.0,49,0.00,CLR,CLR,0.00,WeatherDisplay:10.37,2013-05-04 21:00:00,
2013-05-04 14:02:00,33.6,24.2,29.84,SE,135,0.1,0.0,68,0.00,CLR,,0.00,WeatherDisplay:10.37,2013-05-04 21:02:00,
2013-05-04 14:03:00,33.6,24.2,29.84,SE,135,0.1,0.0,68,0.00,CLR,,0.00,WeatherDisplay:10.37,2013-05-04 21:03:00,
2013-05-04 14:04:00,33.6,24.2,29.84,SE,135,0.1,0.0,68,0.00,CLR,,0.00,WeatherDisplay:10.37,2013-05-04 21:04:00,
2013-05-04 14:05:00,33.6,24.2,29.84,SE,135,0.1,0.0,68,0.00,CLR,,0.00,WeatherDisplay:10.37,2013-05-04 21:05:00,
2013-05-04 14:07:00,33.6,24.2,29.84,SE,135,0.1,0.0,68,0.00,CLR,,0.00,WeatherDisplay:10.37,2013-05-04 21:07:00,
2013-05-04 14:08:00,33.6,24.2,29.84,SE,135,0.1,0.0,68,0.00,CLR,,0.00,WeatherDisplay:10.37,2013-05-04 21:08:00,
2013-05-04 14:09:00,33.6,24.2,29.84,SE,135,0.1,0.0,68,0.00,CLR,,0.00,WeatherDisplay:10.37,2013-05-04 21:09:00,
2013-05-04 14:10:00,33.6,24.2,29.84,SE,135,0.1,0.0,68,0.00,CLR,,0.00,WeatherDisplay:10.37,2013-05-04 21:10:00,
2013-05-04 14:13:00,33.6,24.2,29.84,SE,135,0.1,0.0,68,0.00,CLR,,0.00,WeatherDisplay:10.37,2013-05-04 21:13:00,
2013-05-04 14:14:00,33.6,24.2,29.84,SE,135,0.1,0.0,68,0.00,CLR,,0.00,WeatherDisplay:10.37,2013-05-04 21:14:00,
2013-05-04 14:15:00,33.6,24.2,29.84,SE,135,0.1,0.0,68,0.00,CLR,,0.00,WeatherDisplay:10.37,2013-05-04 21:15:00,
2013-05-04 14:18:00,33.6,24.2,29.84,SE,135,0.1,0.0,68,0.00,CLR,,0.00,WeatherDisplay:10.37,2013-05-04 21:18:00,
2013-05-04 14:19:00,33.6,24.2,29.84,SE,135,0.1,0.0,68,0.00,CLR,,0.00,WeatherDisplay:10.37,2013-05-04 21:19:00,
2013-05-04 14:20:00,33.6,24.2,29.84,SE,135,0.1,0.0,68,0.00,CLR,,0.00,WeatherDisplay:10.37,2013-05-04 21:20:00,
2013-05-04 14:23:00,33.6,24.2,29.84,SE,135,0.1,0.0,68,0.00,CLR,,0.00,WeatherDisplay:10.37,2013-05-04 21:23:00,
2013-05-04 14:24:00,33.6,24.2,29.84,SE,135,0.1,0.0,68,0.00,CLR,,0.00,WeatherDisplay:10.37,2013-05-04 21:24:00,
2013-05-04 14:25:00,33.6,24.2,29.84,SE,135,0.1,0.0,68,0.00,CLR,,0.00,WeatherDisplay:10.37,2013-05-04 21:25:00,
2013-05-04 14:28:00,33.6,24.2,29.84,SE,135,0.1,0.0,68,0.00,CLR,,0.00,WeatherDisplay:10.37,2013-05-04 21:28:00,
2013-05-04 14:29:00,33.6,24.2,29.84,SE,135,0.1,0.0,68,0.00,CLR,,0.00,WeatherDisplay:10.37,2013-05-04 21:29:00,
2013-05-04 14:30:00,33.6,24.2,29.84,SE,135,0.1,0.0,68,0.00,CLR,,0.00,WeatherDisplay:10.37,2013-05-04 21:30:00,
2013-05-04 14:31:00,33.6,24.2,29.84,SE,135,0.1,0.0,68,0.00,CLR,,0.00,WeatherDisplay:10.37,2013-05-04 21:31:00,
2013-05-04 14:34:00,33.6,24.2,29.84,SE,135,0.1,0.0,68,0.00,CLR,,0.00,WeatherDisplay:10.37,2013-05-04 21:34:00,
2013-05-04 14:35:00,33.6,24.2,29.84,SE,135,0.1,0.0,68,0.00,CLR,,0.00,WeatherDisplay:10.37,2013-05-04 21:35:00,
2013-05-04 14:37:00,33.6,24.2,29.84,SE,135,0.1,0.0,68,0.00,CLR,,0.00,WeatherDisplay:10.37,2013-05-04 21:37:00,
2013-05-04 14:39:00,33.6,24.2,29.84,SE,135,0.1,0.0,68,0.00,CLR,,0.00,WeatherDisplay:10.37,2013-05-04 21:39:00,
2013-05-04 14:40:00,33.6,24.2,29.84,SE,135,0.1,0.0,68,0.00,CLR,,0.00,WeatherDisplay:10.37,2013-05-04 21:40:00,
2013-05-04 14:42:00,33.6,24.2,29.84,SE,135,0.1,0.0,68,0.00,CLR,,0.00,WeatherDisplay:10.37,2013-05-04 21:42:00,
2013-05-04 14:45:00,33.6,24.2,29.84,SE,135,0.1,0.0,68,0.00,CLR,,0.00,WeatherDisplay:10.37,2013-05-04 21:45:00,
2013-05-04 14:46:00,33.6,24.2,29.84,SE,135,0.1,0.0,68,0.00,CLR,,0.00,WeatherDisplay:10.37,2013-05-04 21:46:00,
2013-05-04 14:47:00,33.6,24.2,29.84,SE,135,0.1,0.0,68,0.00,CLR,,0.00,WeatherDisplay:10.37,2013-05-04 21:47:00,
2013-05-04 14:50:00,33.6,24.2,29.84,SE,135,0.1,0.0,68,0.00,CLR,,0.00,WeatherDisplay:10.37,2013-05-04 21:50:00,
2013-05-04 14:51:00,33.6,24.2,29.84,SE,135,0.1,0.0,68,0.00,CLR,,0.00,WeatherDisplay:10.37,2013-05-04 21:51:00,
2013-05-04 14:53:00,33.6,24.2,29.84,SE,135,0.1,0.0,68,0.00,CLR,,0.00,WeatherDisplay:10.37,2013-05-04 21:53:00,
2013-05-04 14:55:00,33.6,24.2,29.84,SE,135,0.1,0.0,68,0.00,CLR,,0.00,WeatherDisplay:10.37,2013-05-04 21:55:00,
2013-05-04 14:56:00,33.6,24.2,29.84,SE,135,0.1,0.0,68,0.00,CLR,,0.00,WeatherDisplay:10.37,2013-05-04 21:56:00,
2013-05-04 14:58:00,33.6,24.2,29.84,SE,135,0.1,0.0,68,0.00,CLR,,0.00,WeatherDisplay:10.37,2013-05-04 21:58:00,
2013-05-04 15:00:00,33.6,24.2,29.84,SE,135,0.1,0.0,68,0.00,CLR,,0.00,WeatherDisplay:10.37,2013-05-04 22:00:00,
2013-05-04 15:01:00,33.6,24.2,29.84,SE,135,0.1,0.0,68,0.00,CLR,,0.00,WeatherDisplay:10.37,2013-05-04 22:01:00,
2013-05-04 15:03:00,33.6,24.2,29.84,SE,135,0.1,0.0,68,0.00,CLR,,0.00,WeatherDisplay:10.37,2013-05-04 22:03:00,
2013-05-04 15:05:00,44.8,27.3,29.60,SSE,151,1.0,3.0,50,0.00,CLR,CLR,0.00,WeatherDisplay:10.37,2013-05-04 22:05:00,
2013-05-04 15:06:00,33.6,24.2,29.84,SE,135,0.1,0.0,68,0.00,CLR,,0.00,WeatherDisplay:10.37,2013-05-04 22:06:00,
2013-05-04 15:08:00,33.6,24.2,29.84,SE,135,0.1,0.0,68,0.00,CLR,,0.00,WeatherDisplay:10.37,2013-05-04 22:08:00,
2013-05-04 15:10:00,45.0,27.4,29.60,South,169,2.0,2.0,50,0.00,CLR,CLR,0.00,WeatherDisplay:10.37,2013-05-04 22:10:00,
2013-05-04 15:11:00,33.6,24.2,29.84,SE,135,0.1,0.0,68,0.00,CLR,,0.00,WeatherDisplay:10.37,2013-05-04 22:11:00,
2013-05-04 15:12:00,33.6,24.2,29.84,SE,135,0.1,0.0,68,0.00,CLR,,0.00,WeatherDisplay:10.37,2013-05-04 22:12:00,
2013-05-04 15:13:00,33.6,24.2,29.84,SE,135,0.1,0.0,68,0.00,CLR,,0.00,WeatherDisplay:10.37,2013-05-04 22:13:00,
2013-05-04 15:15:00,45.0,27.4,29.60,SSE,165,1.0,2.0,50,0.00,CLR,CLR,0.00,WeatherDisplay:10.37,2013-05-04 22:15:00,
2013-05-04 15:16:00,33.6,24.2,29.84,SE,135,0.1,0.0,68,0.00,CLR,,0.00,WeatherDisplay:10.37,2013-05-04 22:16:00,
2013-05-04 15:17:00,33.6,24.2,29.84,SE,135,0.1,0.0,68,0.00,CLR,,0.00,WeatherDisplay:10.37,2013-05-04 22:17:00,
2013-05-04 15:18:00,33.6,24.2,29.84,SE,135,0.1,0.0,68,0.00,CLR,,0.00,WeatherDisplay:10.37,2013-05-04 22:18:00,
2013-05-04 15:20:00,44.8,27.3,29.60,SE,144,1.0,3.0,50,0.00,CLR,CLR,0.00,WeatherDisplay:10.37,2013-05-04 22:20:00,
2013-05-04 15:21:00,33.6,24.2,29.84,SE,135,0.1,0.0,68,0.00,CLR,,0.00,WeatherDisplay:10.37,2013-05-04 22:21:00,
2013-05-04 15:22:00,33.6,24.2,29.84,SE,135,0.1,0.0,68,0.00,CLR,,0.00,WeatherDisplay:10.37,2013-05-04 22:22:00,
2013-05-04 15:23:00,33.6,24.2,29.84,SE,135,0.1,0.0,68,0.00,CLR,,0.00,WeatherDisplay:10.37,2013-05-04 22:23:00,
2013-05-04 15:25:00,44.4,26.9,29.60,ESE,119,1.0,3.0,50,0.00,CLR,CLR,0.00,WeatherDisplay:10.37,2013-05-04 22:25:00,
2013-05-04 15:26:00,33.6,24.2,29.84,SE,135,0.1,0.0,68,0.00,CLR,,0.00,WeatherDisplay:10.37,2013-05-04 22:26:00,
2013-05-04 15:27:00,33.6,24.2,29.84,SE,135,0.1,0.0,68,0.00,CLR,,0.00,WeatherDisplay:10.37,2013-05-04 22:27:00,
2013-05-04 15:29:00,33.6,24.2,29.84,SE,135,0.1,0.0,68,0.00,CLR,,0.00,WeatherDisplay:10.37,2013-05-04 22:29:00,
2013-05-04 15:30:00,44.2,26.8,29.60,East,87,0.0,0.0,50,0.00,CLR,CLR,0.00,WeatherDisplay:10.37,2013-05-04 22:30:00,
2013-05-04 15:31:00,33.6,24.2,29.84,SE,135,0.1,0.0,68,0.00,CLR,,0.00,WeatherDisplay:10.37,2013-05-04 22:31:00,
2013-05-04 15:32:00,33.6,24.2,29.84,SE,135,0.1,0.0,68,0.00,CLR,,0.00,WeatherDisplay:10.37,2013-05-04 22:32:00,
2013-05-04 15:33:00,33.6,24.2,29.84,SE,135,0.1,0.0,68,0.00,CLR,,0.00,WeatherDisplay:10.37,2013-05-04 22:33:00,
2013-05-04 15:34:00,33.6,24.2,29.84,SE,135,0.1,0.0,68,0.00,CLR,,0.00,WeatherDisplay:10.37,2013-05-04 22:34:00,
2013-05-04 15:35:00,44.2,26.8,29.60,NE,47,0.0,2.0,50,0.00,CLR,CLR,0.00,WeatherDisplay:10.37,2013-05-04 22:35:00,
2013-05-04 15:36:00,33.6,24.2,29.84,SE,135,0.1,0.0,68,0.00,CLR,,0.00,WeatherDisplay:10.37,2013-05-04 22:36:00,
2013-05-04 15:37:00,33.6,24.2,29.84,SE,135,0.1,0.0,68,0.00,CLR,,0.00,WeatherDisplay:10.37,2013-05-04 22:37:00,
2013-05-04 15:38:00,33.6,24.2,29.84,SE,135,0.1,0.0,68,0.00,CLR,,0.00,WeatherDisplay:10.37,2013-05-04 22:38:00,
2013-05-04 15:39:00,33.6,24.2,29.84,SE,135,0.1,0.0,68,0.00,CLR,,0.00,WeatherDisplay:10.37,2013-05-04 22:39:00,
2013-05-04 15:40:00,44.4,27.4,29.61,ENE,68,1.0,3.0,51,0.00,CLR,CLR,0.00,WeatherDisplay:10.37,2013-05-04 22:40:00,
2013-05-04 15:42:00,33.6,24.2,29.84,SE,135,0.1,0.0,68,0.00,CLR,,0.00,WeatherDisplay:10.37,2013-05-04 22:42:00,
2013-05-04 15:43:00,33.6,24.2,29.84,SE,135,0.1,0.0,68,0.00,CLR,,0.00,WeatherDisplay:10.37,2013-05-04 22:43:00,
2013-05-04 15:44:00,33.6,24.2,29.84,SE,135,0.1,0.0,68,0.00,CLR,,0.00,WeatherDisplay:10.37,2013-05-04 22:44:00,
2013-05-04 15:45:00,44.2,27.2,29.61,East,89,1.0,3.0,51,0.00,CLR,CLR,0.00,WeatherDisplay:10.37,2013-05-04 22:45:00,
2013-05-04 15:48:00,33.6,24.2,29.84,SE,135,0.1,0.0,68,0.00,CLR,,0.00,WeatherDisplay:10.37,2013-05-04 22:48:00,
2013-05-04 15:49:00,33.6,24.2,29.84,SE,135,0.1,0.0,68,0.00,CLR,,0.00,WeatherDisplay:10.37,2013-05-04 22:49:00,
2013-05-04 15:50:00,44.2,27.7,29.61,ESE,121,1.0,2.0,52,0.00,CLR,CLR,0.00,WeatherDisplay:10.37,2013-05-04 22:50:00,
2013-05-04 15:53:00,33.6,24.2,29.84,SE,135,0.1,0.0,68,0.00,CLR,,0.00,WeatherDisplay:10.37,2013-05-04 22:53:00,
2013-05-04 15:54:00,33.6,24.2,29.84,SE,135,0.1,0.0,68,0.00,CLR,,0.00,WeatherDisplay:10.37,2013-05-04 22:54:00,
2013-05-04 15:58:00,33.6,24.2,29.84,SE,135,0.1,0.0,68,0.00,CLR,,0.00,WeatherDisplay:10.37,2013-05-04 22:58:00,
2013-05-04 15:59:00,33.6,24.2,29.84,SE,135,0.1,0.0,68,0.00,CLR,,0.00,WeatherDisplay:10.37,2013-05-04 22:59:00,
2013-05-04 16:00:00,33.6,24.2,29.84,SE,135,0.1,0.0,68,0.00,CLR,,0.00,WeatherDisplay:10.37,2013-05-04 23:00:00,
2013-05-04 16:03:00,33.6,24.2,29.84,SE,135,0.1,0.0,68,0.00,CLR,,0.00,WeatherDisplay:10.37,2013-05-04 23:03:00,
2013-05-04 16:04:00,33.6,24.2,29.84,SE,135,0.1,0.0,68,0.00,CLR,,0.00,WeatherDisplay:10.37,2013-05-04 23:04:00,
2013-05-04 16:05:00,33.6,24.2,29.84,SE,135,0.1,0.0,68,0.00,CLR,,0.00,WeatherDisplay:10.37,2013-05-04 23:05:00,
2013-05-04 16:08:00,33.6,24.2,29.84,SE,135,0.1,0.0,68,0.00,CLR,,0.00,WeatherDisplay:10.37,2013-05-04 23:08:00,
2013-05-04 16:09:00,33.6,24.2,29.84,SE,135,0.1,0.0,68,0.00,CLR,,0.00,WeatherDisplay:10.37,2013-05-04 23:09:00,
2013-05-04 16:10:00,33.6,24.2,29.84,SE,135,0.1,0.0,68,0.00,CLR,,0.00,WeatherDisplay:10.37,2013-05-04 23:10:00,
2013-05-04 16:14:00,33.6,24.2,29.84,SE,135,0.1,0.0,68,0.00,CLR,,0.00,WeatherDisplay:10.37,2013-05-04 23:14:00,
2013-05-04 16:15:00,33.6,24.2,29.84,SE,135,0.1,0.0,68,0.00,CLR,,0.00,WeatherDisplay:10.37,2013-05-04 23:15:00,
2013-05-04 16:19:00,33.6,24.2,29.84,SE,135,0.1,0.0,68,0.00,CLR,,0.00,WeatherDisplay:10.37,2013-05-04 23:19:00,
2013-05-04 16:20:00,33.6,24.2,29.84,SE,135,0.1,0.0,68,0.00,CLR,,0.00,WeatherDisplay:10.37,2013-05-04 23:20:00,
2013-05-04 16:24:00,33.6,24.2,29.84,SE,135,0.1,0.0,68,0.00,CLR,,0.00,WeatherDisplay:10.37,2013-05-04 23:24:00,
2013-05-04 16:25:00,33.6,24.2,29.84,SE,135,0.1,0.0,68,0.00,CLR,,0.00,WeatherDisplay:10.37,2013-05-04 23:25:00,
2013-05-04 16:26:00,33.6,24.2,29.84,SE,135,0.1,0.0,68,0.00,CLR,,0.00,WeatherDisplay:10.37,2013-05-04 23:26:00,
2013-05-04 16:29:00,33.6,24.2,29.84,SE,135,0.1,0.0,68,0.00,CLR,,0.00,WeatherDisplay:10.37,2013-05-04 23:29:00,
2013-05-04 16:30:00,33.6,24.2,29.84,SE,135,0.1,0.0,68,0.00,CLR,,0.00,WeatherDisplay:10.37,2013-05-04 23:30:00,
2013-05-04 16:31:00,33.6,24.2,29.84,SE,135,0.1,0.0,68,0.00,CLR,,0.00,WeatherDisplay:10.37,2013-05-04 23:31:00,
2013-05-04 16:34:00,33.6,24.2,29.84,SE,135,0.1,0.0,68,0.00,CLR,,0.00,WeatherDisplay:10.37,2013-05-04 23:34:00,
2013-05-04 16:36:00,33.6,24.2,29.84,SE,135,0.1,0.0,68,0.00,CLR,,0.00,WeatherDisplay:10.37,2013-05-04 23:36:00,
2013-05-04 16:39:00,33.6,24.2,29.84,SE,135,0.1,0.0,68,0.00,CLR,,0.00,WeatherDisplay:10.37,2013-05-04 23:39:00,
2013-05-04 16:41:00,33.6,24.2,29.84,SE,135,0.1,0.0,68,0.00,CLR,,0.00,WeatherDisplay:10.37,2013-05-04 23:41:00,
2013-05-04 16:44:00,33.6,24.2,29.84,SE,135,0.1,0.0,68,0.00,CLR,,0.00,WeatherDisplay:10.37,2013-05-04 23:44:00,
2013-05-04 16:45:00,33.6,24.2,29.84,SE,135,0.1,0.0,68,0.00,CLR,,0.00,WeatherDisplay:10.37,2013-05-04 23:45:00,
2013-05-04 16:46:00,33.6,24.2,29.84,SE,135,0.1,0.0,68,0.00,CLR,,0.00,WeatherDisplay:10.37,2013-05-04 23:46:00,
2013-05-04 16:47:00,33.6,24.2,29.84,SE,135,0.1,0.0,68,0.00,CLR,,0.00,WeatherDisplay:10.37,2013-05-04 23:47:00,
2013-05-04 16:50:00,33.6,24.2,29.84,SE,135,0.1,0.0,68,0.00,CLR,,0.00,WeatherDisplay:10.37,2013-05-04 23:50:00,
2013-05-04 16:51:00,33.6,24.2,29.84,SE,135,0.1,0.0,68,0.00,CLR,,0.00,WeatherDisplay:10.37,2013-05-04 23:51:00,
2013-05-04 16:52:00,33.6,24.2,29.84,SE,135,0.1,0.0,68,0.00,CLR,,0.00,WeatherDisplay:10.37,2013-05-04 23:52:00,
2013-05-04 16:55:00,33.6,24.2,29.84,SE,135,0.1,0.0,68,0.00,CLR,,0.00,WeatherDisplay:10.37,2013-05-04 23:55:00,
2013-05-04 16:56:00,33.6,24.2,29.84,SE,135,0.1,0.0,68,0.00,CLR,,0.00,WeatherDisplay:10.37,2013-05-04 23:56:00,
2013-05-04 16:57:00,33.6,24.2,29.84,SE,135,0.1,0.0,68,0.00,CLR,,0.00,WeatherDisplay:10.37,2013-05-04 23:57:00,
2013-05-04 17:00:00,33.6,24.2,29.84,SE,135,0.1,0.0,68,0.00,CLR,,0.00,WeatherDisplay:10.37,2013-05-05 00:00:00,
2013-05-04 17:01:00,33.6,24.2,29.84,SE,135,0.1,0.0,68,0.00,CLR,,0.00,WeatherDisplay:10.37,2013-05-05 00:01:00,
2013-05-04 17:02:00,33.6,24.2,29.84,SE,135,0.1,0.0,68,0.00,CLR,,0.00,WeatherDisplay:10.37,2013-05-05 00:02:00,
2013-05-04 17:03:00,33.6,24.2,29.84,SE,135,0.1,0.0,68,0.00,CLR,,0.00,WeatherDisplay:10.37,2013-05-05 00:03:00,
2013-05-04 17:05:00,33.6,24.2,29.84,SE,135,0.1,0.0,68,0.00,CLR,,0.00,WeatherDisplay:10.37,2013-05-05 00:05:00,
2013-05-04 17:06:00,33.6,24.2,29.84,SE,135,0.1,0.0,68,0.00,CLR,,0.00,WeatherDisplay:10.37,2013-05-05 00:06:00,
2013-05-04 17:07:00,33.6,24.2,29.84,SE,135,0.1,0.0,68,0.00,CLR,,0.00,WeatherDisplay:10.37,2013-05-05 00:07:00,
2013-05-04 17:08:00,33.6,24.2,29.84,SE,135,0.1,0.0,68,0.00,CLR,,0.00,WeatherDisplay:10.37,2013-05-05 00:08:00,
2013-05-04 17:10:00,33.6,24.2,29.84,SE,135,0.1,0.0,68,0.00,CLR,,0.00,WeatherDisplay:10.37,2013-05-05 00:10:00,
2013-05-04 17:11:00,33.6,24.2,29.84,SE,135,0.1,0.0,68,0.00,CLR,,0.00,WeatherDisplay:10.37,2013-05-05 00:11:00,
2013-05-04 17:12:00,33.6,24.2,29.84,SE,135,0.1,0.0,68,0.00,CLR,,0.00,WeatherDisplay:10.37,2013-05-05 00:12:00,
2013-05-04 17:13:00,33.6,24.2,29.84,SE,135,0.1,0.0,68,0.00,CLR,,0.00,WeatherDisplay:10.37,2013-05-05 00:13:00,
2013-05-04 17:16:00,33.6,24.2,29.84,SE,135,0.1,0.0,68,0.00,CLR,,0.00,WeatherDisplay:10.37,2013-05-05 00:16:00,
2013-05-04 17:18:00,33.6,24.2,29.84,SE,135,0.1,0.0,68,0.00,CLR,,0.00,WeatherDisplay:10.37,2013-05-05 00:18:00,
2013-05-04 17:19:00,33.6,24.2,29.84,SE,135,0.1,0.0,68,0.00,CLR,,0.00,WeatherDisplay:10.37,2013-05-05 00:19:00,
2013-05-04 17:21:00,33.6,24.2,29.84,SE,135,0.1,0.0,68,0.00,CLR,,0.00,WeatherDisplay:10.37,2013-05-05 00:21:00,
2013-05-04 17:23:00,33.6,24.2,29.84,SE,135,0.1,0.0,68,0.00,CLR,,0.00,WeatherDisplay:10.37,2013-05-05 00:23:00,
2013-05-04 17:24:00,33.6,24.2,29.84,SE,135,0.1,0.0,68,0.00,CLR,,0.00,WeatherDisplay:10.37,2013-05-05 00:24:00,
2013-05-04 17:26:00,33.6,24.2,29.84,SE,135,0.1,0.0,68,0.00,CLR,,0.00,WeatherDisplay:10.37,2013-05-05 00:26:00,
2013-05-04 17:29:00,33.6,24.2,29.84,SE,135,0.1,0.0,68,0.00,CLR,,0.00,WeatherDisplay:10.37,2013-05-05 00:29:00,
2013-05-04 17:31:00,33.6,24.2,29.84,SE,135,0.1,0.0,68,0.00,CLR,,0.00,WeatherDisplay:10.37,2013-05-05 00:31:00,
2013-05-04 17:34:00,33.6,24.2,29.84,SE,135,0.1,0.0,68,0.00,CLR,,0.00,WeatherDisplay:10.37,2013-05-05 00:34:00,
2013-05-04 17:35:00,33.6,24.2,29.84,SE,135,0.1,0.0,68,0.00,CLR,,0.00,WeatherDisplay:10.37,2013-05-05 00:35:00,
2013-05-04 17:36:00,33.6,24.2,29.84,SE,135,0.1,0.0,68,0.00,CLR,,0.00,WeatherDisplay:10.37,2013-05-05 00:36:00,
2013-05-04 17:39:00,33.6,24.2,29.84,SE,135,0.1,0.0,68,0.00,CLR,,0.00,WeatherDisplay:10.37,2013-05-05 00:39:00,
2013-05-04 17:40:00,33.6,24.2,29.84,SE,135,0.1,0.0,68,0.00,CLR,,0.00,WeatherDisplay:10.37,2013-05-05 00:40:00,
2013-05-04 17:41:00,33.6,24.2,29.84,SE,135,0.1,0.0,68,0.00,CLR,,0.00,WeatherDisplay:10.37,2013-05-05 00:41:00,
2013-05-04 17:42:00,33.6,24.2,29.84,SE,135,0.1,0.0,68,0.00,CLR,,0.00,WeatherDisplay:10.37,2013-05-05 00:42:00,
2013-05-04 17:44:00,33.6,24.2,29.84,SE,135,0.1,0.0,68,0.00,CLR,,0.00,WeatherDisplay:10.37,2013-05-05 00:44:00,
2013-05-04 17:45:00,33.6,24.2,29.84,SE,135,0.1,0.0,68,0.00,CLR,,0.00,WeatherDisplay:10.37,2013-05-05 00:45:00,
2013-05-04 17:46:00,33.6,24.2,29.84,SE,135,0.1,0.0,68,0.00,CLR,,0.00,WeatherDisplay:10.37,2013-05-05 00:46:00,
2013-05-04 17:47:00,33.6,24.2,29.84,SE,135,0.1,0.0,68,0.00,CLR,,0.00,WeatherDisplay:10.37,2013-05-05 00:47:00,
2013-05-04 17:49:00,33.6,24.2,29.84,SE,135,0.1,0.0,68,0.00,CLR,,0.00,WeatherDisplay:10.37,2013-05-05 00:49:00,
2013-05-04 17:50:00,33.6,24.2,29.84,SE,135,0.1,0.0,68,0.00,CLR,,0.00,WeatherDisplay:10.37,2013-05-05 00:50:00,
2013-05-04 17:52:00,33.6,24.2,29.84,SE,135,0.1,0.0,68,0.00,CLR,,0.00,WeatherDisplay:10.37,2013-05-05 00:52:00,
2013-05-04 17:54:00,33.6,24.2,29.84,SE,135,0.1,0.0,68,0.00,CLR,,0.00,WeatherDisplay:10.37,2013-05-05 00:54:00,
2013-05-04 17:55:00,33.6,24.2,29.84,SE,135,0.1,0.0,68,0.00,CLR,,0.00,WeatherDisplay:10.37,2013-05-05 00:55:00,
2013-05-04 17:56:00,33.6,24.2,29.84,SE,135,0.1,0.0,68,0.00,CLR,,0.00,WeatherDisplay:10.37,2013-05-05 00:56:00,
2013-05-04 17:57:00,33.6,24.2,29.84,SE,135,0.1,0.0,68,0.00,CLR,,0.00,WeatherDisplay:10.37,2013-05-05 00:57:00,
2013-05-04 18:00:00,33.6,24.2,29.84,SE,135,0.0,0.0,68,0.00,CLR,CLR,0.00,WeatherDisplay:10.37,2013-05-05 01:00:00,
2013-05-04 18:01:00,33.6,24.2,29.84,SE,135,0.1,0.0,68,0.00,CLR,,0.00,WeatherDisplay:10.37,2013-05-05 01:01:00,
2013-05-04 18:02:00,33.6,24.2,29.84,SE,135,0.1,0.0,68,0.00,CLR,,0.00,WeatherDisplay:10.37,2013-05-05 01:02:00,
2013-05-04 18:05:00,33.6,24.2,29.84,SE,135,0.1,0.0,68,0.00,CLR,,0.00,WeatherDisplay:10.37,2013-05-05 01:05:00,
2013-05-04 18:06:00,33.6,24.2,29.84,SE,135,0.1,0.0,68,0.00,CLR,,0.00,WeatherDisplay:10.37,2013-05-05 01:06:00,
2013-05-04 18:07:00,33.6,24.2,29.84,SE,135,0.1,0.0,68,0.00,CLR,,0.00,WeatherDisplay:10.37,2013-05-05 01:07:00,
2013-05-04 18:08:00,33.6,24.2,29.84,SE,135,0.1,0.0,68,0.00,CLR,,0.00,WeatherDisplay:10.37,2013-05-05 01:08:00,
2013-05-04 18:10:00,33.6,24.2,29.84,SE,135,0.1,0.0,68,0.00,CLR,,0.00,WeatherDisplay:10.37,2013-05-05 01:10:00,
2013-05-04 18:11:00,33.6,24.2,29.84,SE,135,0.1,0.0,68,0.00,CLR,,0.00,WeatherDisplay:10.37,2013-05-05 01:11:00,
2013-05-04 18:13:00,33.6,24.2,29.84,SE,135,0.1,0.0,68,0.00,CLR,,0.00,WeatherDisplay:10.37,2013-05-05 01:13:00,
2013-05-04 18:15:00,33.6,24.2,29.84,SE,135,0.1,0.0,68,0.00,CLR,,0.00,WeatherDisplay:10.37,2013-05-05 01:15:00,
2013-05-04 18:16:00,33.6,24.2,29.84,SE,135,0.1,0.0,68,0.00,CLR,,0.00,WeatherDisplay:10.37,2013-05-05 01:16:00,
2013-05-04 18:18:00,33.6,24.2,29.84,SE,135,0.1,0.0,68,0.00,CLR,,0.00,WeatherDisplay:10.37,2013-05-05 01:18:00,
2013-05-04 18:20:00,33.6,24.2,29.84,SE,135,0.1,0.0,68,0.00,CLR,,0.00,WeatherDisplay:10.37,2013-05-05 01:20:00,
2013-05-04 18:21:00,33.6,24.2,29.84,SE,135,0.1,0.0,68,0.00,CLR,,0.00,WeatherDisplay:10.37,2013-05-05 01:21:00,
2013-05-04 18:23:00,33.6,24.2,29.84,SE,135,0.1,0.0,68,0.00,CLR,,0.00,WeatherDisplay:10.37,2013-05-05 01:23:00,
2013-05-04 18:25:00,33.6,24.2,29.84,SE,135,0.1,0.0,68,0.00,CLR,,0.00,WeatherDisplay:10.37,2013-05-05 01:25:00,
2013-05-04 18:26:00,33.6,24.2,29.84,SE,135,0.1,0.0,68,0.00,CLR,,0.00,WeatherDisplay:10.37,2013-05-05 01:26:00,
2013-05-04 18:28:00,33.6,24.2,29.84,SE,135,0.1,0.0,68,0.00,CLR,,0.00,WeatherDisplay:10.37,2013-05-05 01:28:00,
2013-05-04 18:30:00,33.6,24.2,29.84,SE,135,0.1,0.0,68,0.00,CLR,,0.00,WeatherDisplay:10.37,2013-05-05 01:30:00,
2013-05-04 18:31:00,33.6,24.2,29.84,SE,135,0.1,0.0,68,0.00,CLR,,0.00,WeatherDisplay:10.37,2013-05-05 01:31:00,
2013-05-04 18:33:00,33.6,24.2,29.84,SE,135,0.1,0.0,68,0.00,CLR,,0.00,WeatherDisplay:10.37,2013-05-05 01:33:00,
2013-05-04 18:36:00,33.6,24.2,29.84,SE,135,0.1,0.0,68,0.00,CLR,,0.00,WeatherDisplay:10.37,2013-05-05 01:36:00,
2013-05-04 18:37:00,33.6,24.2,29.84,SE,135,0.1,0.0,68,0.00,CLR,,0.00,WeatherDisplay:10.37,2013-05-05 01:37:00,
2013-05-04 18:38:00,33.6,24.2,29.84,SE,135,0.1,0.0,68,0.00,CLR,,0.00,WeatherDisplay:10.37,2013-05-05 01:38:00,
2013-05-04 18:40:00,33.6,24.2,29.84,SE,135,0.1,0.0,68,0.00,CLR,,0.00,WeatherDisplay:10.37,2013-05-05 01:40:00,
2013-05-04 18:41:00,33.6,24.2,29.84,SE,135,0.1,0.0,68,0.00,CLR,,0.00,WeatherDisplay:10.37,2013-05-05 01:41:00,
2013-05-04 18:42:00,33.6,24.2,29.84,SE,135,0.1,0.0,68,0.00,CLR,,0.00,WeatherDisplay:10.37,2013-05-05 01:42:00,
2013-05-04 18:43:00,33.6,24.2,29.84,SE,135,0.1,0.0,68,0.00,CLR,,0.00,WeatherDisplay:10.37,2013-05-05 01:43:00,
2013-05-04 18:45:00,33.6,24.2,29.84,SE,135,0.1,0.0,68,0.00,CLR,,0.00,WeatherDisplay:10.37,2013-05-05 01:45:00,
2013-05-04 18:46:00,33.6,24.2,29.84,SE,135,0.1,0.0,68,0.00,CLR,,0.00,WeatherDisplay:10.37,2013-05-05 01:46:00,
2013-05-04 18:47:00,33.6,24.2,29.84,SE,135,0.1,0.0,68,0.00,CLR,,0.00,WeatherDisplay:10.37,2013-05-05 01:47:00,
2013-05-04 18:48:00,33.6,24.2,29.84,SE,135,0.1,0.0,68,0.00,CLR,,0.00,WeatherDisplay:10.37,2013-05-05 01:48:00,
2013-05-04 18:50:00,33.6,24.2,29.84,SE,135,0.1,0.0,68,0.00,CLR,,0.00,WeatherDisplay:10.37,2013-05-05 01:50:00,
2013-05-04 18:51:00,33.6,24.2,29.84,SE,135,0.1,0.0,68,0.00,CLR,,0.00,WeatherDisplay:10.37,2013-05-05 01:51:00,
2013-05-04 18:52:00,33.6,24.2,29.84,SE,135,0.1,0.0,68,0.00,CLR,,0.00,WeatherDisplay:10.37,2013-05-05 01:52:00,
2013-05-04 18:54:00,33.6,24.2,29.84,SE,135,0.1,0.0,68,0.00,CLR,,0.00,WeatherDisplay:10.37,2013-05-05 01:54:00,
2013-05-04 18:55:00,33.6,24.2,29.84,SE,135,0.1,0.0,68,0.00,CLR,,0.00,WeatherDisplay:10.37,2013-05-05 01:55:00,
2013-05-04 18:56:00,33.6,24.2,29.84,SE,135,0.1,0.0,68,0.00,CLR,,0.00,WeatherDisplay:10.37,2013-05-05 01:56:00,
2013-05-04 18:57:00,33.6,24.2,29.84,SE,135,0.1,0.0,68,0.00,CLR,,0.00,WeatherDisplay:10.37,2013-05-05 01:57:00,
2013-05-04 18:58:00,33.6,24.2,29.84,SE,135,0.1,0.0,68,0.00,CLR,,0.00,WeatherDisplay:10.37,2013-05-05 01:58:00,
2013-05-04 18:59:00,33.6,24.2,29.84,SE,135,0.1,0.0,68,0.00,CLR,,0.00,WeatherDisplay:10.37,2013-05-05 01:59:00,
2013-05-04 19:01:00,33.6,24.2,29.84,SE,135,0.1,0.0,68,0.00,CLR,,0.00,WeatherDisplay:10.37,2013-05-05 02:01:00,
2013-05-04 19:02:00,33.6,24.2,29.84,SE,135,0.1,0.0,68,0.00,CLR,,0.00,WeatherDisplay:10.37,2013-05-05 02:02:00,
2013-05-04 19:03:00,33.6,24.2,29.84,SE,135,0.1,0.0,68,0.00,CLR,,0.00,WeatherDisplay:10.37,2013-05-05 02:03:00,
2013-05-04 19:04:00,33.6,24.2,29.84,SE,135,0.1,0.0,68,0.00,CLR,,0.00,WeatherDisplay:10.37,2013-05-05 02:04:00,
2013-05-04 19:06:00,33.6,24.2,29.84,SE,135,0.1,0.0,68,0.00,CLR,,0.00,WeatherDisplay:10.37,2013-05-05 02:06:00,
2013-05-04 19:07:00,33.6,24.2,29.84,SE,135,0.1,0.0,68,0.00,CLR,,0.00,WeatherDisplay:10.37,2013-05-05 02:07:00,
2013-05-04 19:08:00,33.6,24.2,29.84,SE,135,0.1,0.0,68,0.00,CLR,,0.00,WeatherDisplay:10.37,2013-05-05 02:08:00,
2013-05-04 19:09:00,33.6,24.2,29.84,SE,135,0.1,0.0,68,0.00,CLR,,0.00,WeatherDisplay:10.37,2013-05-05 02:09:00,
2013-05-04 19:11:00,33.6,24.2,29.84,SE,135,0.1,0.0,68,0.00,CLR,,0.00,WeatherDisplay:10.37,2013-05-05 02:11:00,
2013-05-04 19:12:00,33.6,24.2,29.84,SE,135,0.1,0.0,68,0.00,CLR,,0.00,WeatherDisplay:10.37,2013-05-05 02:12:00,
2013-05-04 19:13:00,33.6,24.2,29.84,SE,135,0.1,0.0,68,0.00,CLR,,0.00,WeatherDisplay:10.37,2013-05-05 02:13:00,
2013-05-04 19:15:00,33.6,24.2,29.84,SE,135,0.1,0.0,68,0.00,CLR,,0.00,WeatherDisplay:10.37,2013-05-05 02:15:00,
2013-05-04 19:16:00,33.6,24.2,29.84,SE,135,0.1,0.0,68,0.00,CLR,,0.00,WeatherDisplay:10.37,2013-05-05 02:16:00,
2013-05-04 19:17:00,33.6,24.2,29.84,SE,135,0.1,0.0,68,0.00,CLR,,0.00,WeatherDisplay:10.37,2013-05-05 02:17:00,
2013-05-04 19:18:00,33.6,24.2,29.84,SE,135,0.1,0.0,68,0.00,CLR,,0.00,WeatherDisplay:10.37,2013-05-05 02:18:00,
2013-05-04 19:20:00,33.6,24.2,29.84,SE,135,0.1,0.0,68,0.00,CLR,,0.00,WeatherDisplay:10.37,2013-05-05 02:20:00,
2013-05-04 19:21:00,33.6,24.2,29.84,SE,135,0.1,0.0,68,0.00,CLR,,0.00,WeatherDisplay:10.37,2013-05-05 02:21:00,
2013-05-04 19:22:00,33.6,24.2,29.84,SE,135,0.1,0.0,68,0.00,CLR,,0.00,WeatherDisplay:10.37,2013-05-05 02:22:00,
2013-05-04 19:23:00,33.6,24.2,29.84,SE,135,0.1,0.0,68,0.00,CLR,,0.00,WeatherDisplay:10.37,2013-05-05 02:23:00,
2013-05-04 19:24:00,33.6,24.2,29.84,SE,135,0.1,0.0,68,0.00,CLR,,0.00,WeatherDisplay:10.37,2013-05-05 02:24:00,
2013-05-04 19:25:00,33.6,24.2,29.84,SE,135,0.0,0.0,68,0.00,CLR,CLR,0.00,WeatherDisplay:10.37,2013-05-05 02:25:00,
2013-05-04 19:26:00,33.6,24.2,29.84,SE,135,0.1,0.0,68,0.00,CLR,,0.00,WeatherDisplay:10.37,2013-05-05 02:26:00,
2013-05-04 19:27:00,33.6,24.2,29.84,SE,135,0.1,0.0,68,0.00,CLR,,0.00,WeatherDisplay:10.37,2013-05-05 02:27:00,
2013-05-04 19:29:00,33.6,24.2,29.84,SE,135,0.1,0.0,68,0.00,CLR,,0.00,WeatherDisplay:10.37,2013-05-05 02:29:00,
2013-05-04 19:30:00,33.6,24.2,29.84,SE,135,0.0,0.0,68,0.00,CLR,CLR,0.00,WeatherDisplay:10.37,2013-05-05 02:30:00,
2013-05-04 19:31:00,33.6,24.2,29.84,SE,135,0.1,0.0,68,0.00,CLR,,0.00,WeatherDisplay:10.37,2013-05-05 02:31:00,
2013-05-04 19:32:00,33.6,24.2,29.84,SE,135,0.1,0.0,68,0.00,CLR,,0.00,WeatherDisplay:10.37,2013-05-05 02:32:00,
2013-05-04 19:34:00,33.6,24.2,29.84,SE,135,0.1,0.0,68,0.00,CLR,,0.00,WeatherDisplay:10.37,2013-05-05 02:34:00,
2013-05-04 19:35:00,33.6,24.2,29.84,SE,135,0.0,0.0,68,0.00,CLR,CLR,0.00,WeatherDisplay:10.37,2013-05-05 02:35:00,
2013-05-04 19:36:00,33.6,24.2,29.84,SE,135,0.1,0.0,68,0.00,CLR,,0.00,WeatherDisplay:10.37,2013-05-05 02:36:00,
2013-05-04 19:38:00,33.6,24.2,29.84,SE,135,0.1,0.0,68,0.00,CLR,,0.00,WeatherDisplay:10.37,2013-05-05 02:38:00,
2013-05-04 19:39:00,33.6,24.2,29.84,SE,135,0.1,0.0,68,0.00,CLR,,0.00,WeatherDisplay:10.37,2013-05-05 02:39:00,
2013-05-04 19:40:00,33.6,24.2,29.84,SE,135,0.1,0.0,68,0.00,CLR,,0.00,WeatherDisplay:10.37,2013-05-05 02:40:00,
2013-05-04 19:42:00,33.6,24.2,29.84,SE,135,0.1,0.0,68,0.00,CLR,,0.00,WeatherDisplay:10.37,2013-05-05 02:42:00,
2013-05-04 19:43:00,33.6,24.2,29.84,SE,135,0.1,0.0,68,0.00,CLR,,0.00,WeatherDisplay:10.37,2013-05-05 02:43:00,
2013-05-04 19:45:00,33.6,24.2,29.84,SE,135,0.1,0.0,68,0.00,CLR,,0.00,WeatherDisplay:10.37,2013-05-05 02:45:00,
2013-05-04 19:46:00,33.6,24.2,29.84,SE,135,0.1,0.0,68,0.00,CLR,,0.00,WeatherDisplay:10.37,2013-05-05 02:46:00,
2013-05-04 19:47:00,33.6,24.2,29.84,SE,135,0.1,0.0,68,0.00,CLR,,0.00,WeatherDisplay:10.37,2013-05-05 02:47:00,
2013-05-04 19:48:00,33.6,24.2,29.84,SE,135,0.1,0.0,68,0.00,CLR,,0.00,WeatherDisplay:10.37,2013-05-05 02:48:00,
2013-05-04 19:50:00,33.6,24.2,29.84,SE,135,0.1,0.0,68,0.00,CLR,,0.00,WeatherDisplay:10.37,2013-05-05 02:50:00,
2013-05-04 19:51:00,33.6,24.2,29.84,SE,135,0.1,0.0,68,0.00,CLR,,0.00,WeatherDisplay:10.37,2013-05-05 02:51:00,
2013-05-04 19:52:00,33.6,24.2,29.84,SE,135,0.1,0.0,68,0.00,CLR,,0.00,WeatherDisplay:10.37,2013-05-05 02:52:00,
2013-05-04 19:54:00,33.6,24.2,29.84,SE,135,0.1,0.0,68,0.00,CLR,,0.00,WeatherDisplay:10.37,2013-05-05 02:54:00,
2013-05-04 19:55:00,33.6,24.2,29.84,SE,135,0.1,0.0,68,0.00,CLR,,0.00,WeatherDisplay:10.37,2013-05-05 02:55:00,
2013-05-04 19:56:00,33.6,24.2,29.84,SE,135,0.1,0.0,68,0.00,CLR,,0.00,WeatherDisplay:10.37,2013-05-05 02:56:00,
2013-05-04 19:57:00,33.6,24.2,29.84,SE,135,0.1,0.0,68,0.00,CLR,,0.00,WeatherDisplay:10.37,2013-05-05 02:57:00,
2013-05-04 20:00:00,33.6,24.2,29.84,SE,135,0.1,0.0,68,0.00,CLR,,0.00,WeatherDisplay:10.37,2013-05-05 03:00:00,
2013-05-04 20:01:00,33.6,24.2,29.84,SE,135,0.1,0.0,68,0.00,CLR,,0.00,WeatherDisplay:10.37,2013-05-05 03:01:00,
2013-05-04 20:02:00,33.6,24.2,29.84,SE,135,0.1,0.0,68,0.00,CLR,,0.00,WeatherDisplay:10.37,2013-05-05 03:02:00,
2013-05-04 20:05:00,33.6,24.2,29.84,SE,135,0.1,0.0,68,0.00,CLR,,0.00,WeatherDisplay:10.37,2013-05-05 03:05:00,
2013-05-04 20:06:00,33.6,24.2,29.84,SE,135,0.1,0.0,68,0.00,CLR,,0.00,WeatherDisplay:10.37,2013-05-05 03:06:00,
2013-05-04 20:07:00,33.6,24.2,29.84,SE,135,0.1,0.0,68,0.00,CLR,,0.00,WeatherDisplay:10.37,2013-05-05 03:07:00,
2013-05-04 20:10:00,33.6,24.2,29.84,SE,135,0.1,0.0,68,0.00,CLR,,0.00,WeatherDisplay:10.37,2013-05-05 03:10:00,
2013-05-04 20:11:00,33.6,24.2,29.84,SE,135,0.1,0.0,68,0.00,CLR,,0.00,WeatherDisplay:10.37,2013-05-05 03:11:00,
2013-05-04 20:12:00,33.6,24.2,29.84,SE,135,0.1,0.0,68,0.00,CLR,,0.00,WeatherDisplay:10.37,2013-05-05 03:12:00,
2013-05-04 20:15:00,33.6,24.2,29.84,SE,135,0.1,0.0,68,0.00,CLR,,0.00,WeatherDisplay:10.37,2013-05-05 03:15:00,
2013-05-04 20:17:00,33.6,24.2,29.84,SE,135,0.1,0.0,68,0.00,CLR,,0.00,WeatherDisplay:10.37,2013-05-05 03:17:00,
2013-05-04 20:20:00,33.6,24.2,29.84,SE,135,0.1,0.0,68,0.00,CLR,,0.00,WeatherDisplay:10.37,2013-05-05 03:20:00,
2013-05-04 20:22:00,33.6,24.2,29.84,SE,135,0.1,0.0,68,0.00,CLR,,0.00,WeatherDisplay:10.37,2013-05-05 03:22:00,
2013-05-04 20:23:00,33.6,24.2,29.84,SE,135,0.1,0.0,68,0.00,CLR,,0.00,WeatherDisplay:10.37,2013-05-05 03:23:00,
2013-05-04 20:25:00,33.6,24.2,29.84,SE,135,0.1,0.0,68,0.00,CLR,,0.00,WeatherDisplay:10.37,2013-05-05 03:25:00,
2013-05-04 20:27:00,33.6,24.2,29.84,SE,135,0.1,0.0,68,0.00,CLR,,0.00,WeatherDisplay:10.37,2013-05-05 03:27:00,
2013-05-04 20:28:00,33.6,24.2,29.84,SE,135,0.1,0.0,68,0.00,CLR,,0.00,WeatherDisplay:10.37,2013-05-05 03:28:00,
2013-05-04 20:30:00,33.6,24.2,29.84,SE,135,0.1,0.0,68,0.00,CLR,,0.00,WeatherDisplay:10.37,2013-05-05 03:30:00,
2013-05-04 20:32:00,33.6,24.2,29.84,SE,135,0.1,0.0,68,0.00,CLR,,0.00,WeatherDisplay:10.37,2013-05-05 03:32:00,
2013-05-04 20:33:00,33.6,24.2,29.84,SE,135,0.1,0.0,68,0.00,CLR,,0.00,WeatherDisplay:10.37,2013-05-05 03:33:00,
2013-05-04 20:36:00,33.6,24.2,29.84,SE,135,0.1,0.0,68,0.00,CLR,,0.00,WeatherDisplay:10.37,2013-05-05 03:36:00,
2013-05-04 20:37:00,33.6,24.2,29.84,SE,135,0.1,0.0,68,0.00,CLR,,0.00,WeatherDisplay:10.37,2013-05-05 03:37:00,
2013-05-04 20:38:00,33.6,24.2,29.84,SE,135,0.1,0.0,68,0.00,CLR,,0.00,WeatherDisplay:10.37,2013-05-05 03:38:00,
2013-05-04 20:41:00,33.6,24.2,29.84,SE,135,0.1,0.0,68,0.00,CLR,,0.00,WeatherDisplay:10.37,2013-05-05 03:41:00,
2013-05-04 20:42:00,33.6,24.2,29.84,SE,135,0.1,0.0,68,0.00,CLR,,0.00,WeatherDisplay:10.37,2013-05-05 03:42:00,
2013-05-04 20:43:00,33.6,24.2,29.84,SE,135,0.1,0.0,68,0.00,CLR,,0.00,WeatherDisplay:10.37,2013-05-05 03:43:00,
2013-05-04 20:44:00,33.6,24.2,29.84,SE,135,0.1,0.0,68,0.00,CLR,,0.00,WeatherDisplay:10.37,2013-05-05 03:44:00,
2013-05-04 20:46:00,33.6,24.2,29.84,SE,135,0.1,0.0,68,0.00,CLR,,0.00,WeatherDisplay:10.37,2013-05-05 03:46:00,
2013-05-04 20:47:00,33.6,24.2,29.84,SE,135,0.1,0.0,68,0.00,CLR,,0.00,WeatherDisplay:10.37,2013-05-05 03:47:00,
2013-05-04 20:48:00,33.6,24.2,29.84,SE,135,0.1,0.0,68,0.00,CLR,,0.00,WeatherDisplay:10.37,2013-05-05 03:48:00,
2013-05-04 20:49:00,33.6,24.2,29.84,SE,135,0.1,0.0,68,0.00,CLR,,0.00,WeatherDisplay:10.37,2013-05-05 03:49:00,
2013-05-04 20:51:00,33.6,24.2,29.84,SE,135,0.1,0.0,68,0.00,CLR,,0.00,WeatherDisplay:10.37,2013-05-05 03:51:00,
2013-05-04 20:52:00,33.6,24.2,29.84,SE,135,0.1,0.0,68,0.00,CLR,,0.00,WeatherDisplay:10.37,2013-05-05 03:52:00,
2013-05-04 20:54:00,33.6,24.2,29.84,SE,135,0.1,0.0,68,0.00,CLR,,0.00,WeatherDisplay:10.37,2013-05-05 03:54:00,
2013-05-04 20:57:00,33.6,24.2,29.84,SE,135,0.1,0.0,68,0.00,CLR,,0.00,WeatherDisplay:10.37,2013-05-05 03:57:00,
2013-05-04 20:59:00,33.6,24.2,29.84,SE,135,0.1,0.0,68,0.00,CLR,,0.00,WeatherDisplay:10.37,2013-05-05 03:59:00,
2013-05-04 21:01:00,33.6,24.2,29.84,SE,135,0.1,0.0,68,0.00,CLR,,0.00,WeatherDisplay:10.37,2013-05-05 04:01:00,
2013-05-04 21:06:00,33.6,24.2,29.84,SE,135,0.1,0.0,68,0.00,CLR,,0.00,WeatherDisplay:10.37,2013-05-05 04:06:00,
2013-05-04 21:07:00,33.6,24.2,29.84,SE,135,0.1,0.0,68,0.00,CLR,,0.00,WeatherDisplay:10.37,2013-05-05 04:07:00,
2013-05-04 21:11:00,33.6,24.2,29.84,SE,135,0.1,0.0,68,0.00,CLR,,0.00,WeatherDisplay:10.37,2013-05-05 04:11:00,
2013-05-04 21:12:00,33.6,24.2,29.84,SE,135,0.1,0.0,68,0.00,CLR,,0.00,WeatherDisplay:10.37,2013-05-05 04:12:00,
2013-05-04 21:16:00,33.6,24.2,29.84,SE,135,0.1,0.0,68,0.00,CLR,,0.00,WeatherDisplay:10.37,2013-05-05 04:16:00,
2013-05-04 21:17:00,33.6,24.2,29.84,SE,135,0.1,0.0,68,0.00,CLR,,0.00,WeatherDisplay:10.37,2013-05-05 04:17:00,
2013-05-04 21:21:00,33.6,24.2,29.84,SE,135,0.1,0.0,68,0.00,CLR,,0.00,WeatherDisplay:10.37,2013-05-05 04:21:00,
2013-05-04 21:22:00,33.6,24.2,29.84,SE,135,0.1,0.0,68,0.00,CLR,,0.00,WeatherDisplay:10.37,2013-05-05 04:22:00,
2013-05-04 21:26:00,33.6,24.2,29.84,SE,135,0.1,0.0,68,0.00,CLR,,0.00,WeatherDisplay:10.37,2013-05-05 04:26:00,
2013-05-04 21:27:00,33.6,24.2,29.84,SE,135,0.1,0.0,68,0.00,CLR,,0.00,WeatherDisplay:10.37,2013-05-05 04:27:00,
2013-05-04 21:31:00,33.6,24.2,29.84,SE,135,0.1,0.0,68,0.00,CLR,,0.00,WeatherDisplay:10.37,2013-05-05 04:31:00,
2013-05-04 21:32:00,33.6,24.2,29.84,SE,135,0.1,0.0,68,0.00,CLR,,0.00,WeatherDisplay:10.37,2013-05-05 04:32:00,
2013-05-04 21:33:00,33.6,24.2,29.84,SE,135,0.1,0.0,68,0.00,CLR,,0.00,WeatherDisplay:10.37,2013-05-05 04:33:00,
2013-05-04 21:36:00,33.6,24.2,29.84,SE,135,0.1,0.0,68,0.00,CLR,,0.00,WeatherDisplay:10.37,2013-05-05 04:36:00,
2013-05-04 21:37:00,33.6,24.2,29.84,SE,135,0.1,0.0,68,0.00,CLR,,0.00,WeatherDisplay:10.37,2013-05-05 04:37:00,
2013-05-04 21:38:00,33.6,24.2,29.84,SE,135,0.1,0.0,68,0.00,CLR,,0.00,WeatherDisplay:10.37,2013-05-05 04:38:00,
2013-05-04 21:42:00,33.6,24.2,29.84,SE,135,0.1,0.0,68,0.00,CLR,,0.00,WeatherDisplay:10.37,2013-05-05 04:42:00,
2013-05-04 21:43:00,33.6,24.2,29.84,SE,135,0.1,0.0,68,0.00,CLR,,0.00,WeatherDisplay:10.37,2013-05-05 04:43:00,
2013-05-04 21:47:00,33.6,24.2,29.84,SE,135,0.1,0.0,68,0.00,CLR,,0.00,WeatherDisplay:10.37,2013-05-05 04:47:00,
2013-05-04 21:48:00,33.6,24.2,29.84,SE,135,0.1,0.0,68,0.00,CLR,,0.00,WeatherDisplay:10.37,2013-05-05 04:48:00,
2013-05-04 21:52:00,33.6,24.2,29.84,SE,135,0.1,0.0,68,0.00,CLR,,0.00,WeatherDisplay:10.37,2013-05-05 04:52:00,
2013-05-04 21:53:00,33.6,24.2,29.84,SE,135,0.1,0.0,68,0.00,CLR,,0.00,WeatherDisplay:10.37,2013-05-05 04:53:00,
2013-05-04 21:54:00,33.6,24.2,29.84,SE,135,0.1,0.0,68,0.00,CLR,,0.00,WeatherDisplay:10.37,2013-05-05 04:54:00,
2013-05-04 21:57:00,33.6,24.2,29.84,SE,135,0.1,0.0,68,0.00,CLR,,0.00,WeatherDisplay:10.37,2013-05-05 04:57:00,
2013-05-04 21:58:00,33.6,24.2,29.84,SE,135,0.1,0.0,68,0.00,CLR,,0.00,WeatherDisplay:10.37,2013-05-05 04:58:00,
2013-05-04 21:59:00,33.6,24.2,29.84,SE,135,0.1,0.0,68,0.00,CLR,,0.00,WeatherDisplay:10.37,2013-05-05 04:59:00,
2013-05-04 22:02:00,33.6,24.2,29.84,SE,135,0.1,0.0,68,0.00,CLR,,0.00,WeatherDisplay:10.37,2013-05-05 05:02:00,
2013-05-04 22:03:00,33.6,24.2,29.84,SE,135,0.1,0.0,68,0.00,CLR,,0.00,WeatherDisplay:10.37,2013-05-05 05:03:00,
2013-05-04 22:04:00,33.6,24.2,29.84,SE,135,0.1,0.0,68,0.00,CLR,,0.00,WeatherDisplay:10.37,2013-05-05 05:04:00,
2013-05-04 22:07:00,33.6,24.2,29.84,SE,135,0.1,0.0,68,0.00,CLR,,0.00,WeatherDisplay:10.37,2013-05-05 05:07:00,
2013-05-04 22:08:00,33.6,24.2,29.84,SE,135,0.1,0.0,68,0.00,CLR,,0.00,WeatherDisplay:10.37,2013-05-05 05:08:00,
2013-05-04 22:09:00,33.6,24.2,29.84,SE,135,0.1,0.0,68,0.00,CLR,,0.00,WeatherDisplay:10.37,2013-05-05 05:09:00,
2013-05-04 22:14:00,33.6,24.2,29.84,SE,135,0.1,0.0,68,0.00,CLR,,0.00,WeatherDisplay:10.37,2013-05-05 05:14:00,
2013-05-04 22:19:00,33.6,24.2,29.84,SE,135,0.1,0.0,68,0.00,CLR,,0.00,WeatherDisplay:10.37,2013-05-05 05:19:00,
2013-05-04 22:24:00,33.6,24.2,29.84,SE,135,0.1,0.0,68,0.00,CLR,,0.00,WeatherDisplay:10.37,2013-05-05 05:24:00,
2013-05-04 22:25:00,33.6,24.2,29.84,SE,135,0.1,0.0,68,0.00,CLR,,0.00,WeatherDisplay:10.37,2013-05-05 05:25:00,
2013-05-04 22:29:00,33.6,24.2,29.84,SE,135,0.1,0.0,68,0.00,CLR,,0.00,WeatherDisplay:10.37,2013-05-05 05:29:00,
2013-05-04 22:30:00,33.6,24.2,29.84,SE,135,0.1,0.0,68,0.00,CLR,,0.00,WeatherDisplay:10.37,2013-05-05 05:30:00,
2013-05-04 22:34:00,33.6,24.2,29.84,SE,135,0.1,0.0,68,0.00,CLR,,0.00,WeatherDisplay:10.37,2013-05-05 05:34:00,
2013-05-04 22:35:00,33.6,24.2,29.84,SE,135,0.1,0.0,68,0.00,CLR,,0.00,WeatherDisplay:10.37,2013-05-05 05:35:00,
2013-05-04 22:39:00,33.6,24.2,29.84,SE,135,0.1,0.0,68,0.00,CLR,,0.00,WeatherDisplay:10.37,2013-05-05 05:39:00,
2013-05-04 22:40:00,33.6,24.2,29.84,SE,135,0.1,0.0,68,0.00,CLR,,0.00,WeatherDisplay:10.37,2013-05-05 05:40:00,
2013-05-04 22:44:00,33.6,24.2,29.84,SE,135,0.1,0.0,68,0.00,CLR,,0.00,WeatherDisplay:10.37,2013-05-05 05:44:00,
2013-05-04 22:45:00,33.6,24.2,29.84,SE,135,0.1,0.0,68,0.00,CLR,,0.00,WeatherDisplay:10.37,2013-05-05 05:45:00,
2013-05-04 22:46:00,33.6,24.2,29.84,SE,135,0.1,0.0,68,0.00,CLR,,0.00,WeatherDisplay:10.37,2013-05-05 05:46:00,
2013-05-04 22:50:00,33.6,24.2,29.84,SE,135,0.1,0.0,68,0.00,CLR,,0.00,WeatherDisplay:10.37,2013-05-05 05:50:00,
2013-05-04 22:51:00,33.6,24.2,29.84,SE,135,0.1,0.0,68,0.00,CLR,,0.00,WeatherDisplay:10.37,2013-05-05 05:51:00,
2013-05-04 22:55:00,33.6,24.2,29.84,SE,135,0.1,0.0,68,0.00,CLR,,0.00,WeatherDisplay:10.37,2013-05-05 05:55:00,
2013-05-04 22:56:00,33.6,24.2,29.84,SE,135,0.1,0.0,68,0.00,CLR,,0.00,WeatherDisplay:10.37,2013-05-05 05:56:00,
2013-05-04 23:00:00,33.6,24.2,29.84,SE,135,0.1,0.0,68,0.00,CLR,,0.00,WeatherDisplay:10.37,2013-05-05 06:00:00,
2013-05-04 23:01:00,33.6,24.2,29.84,SE,135,0.1,0.0,68,0.00,CLR,,0.00,WeatherDisplay:10.37,2013-05-05 06:01:00,
2013-05-04 23:02:00,33.6,24.2,29.84,SE,135,0.1,0.0,68,0.00,CLR,,0.00,WeatherDisplay:10.37,2013-05-05 06:02:00,
2013-05-04 23:06:00,33.6,24.2,29.84,SE,135,0.1,0.0,68,0.00,CLR,,0.00,WeatherDisplay:10.37,2013-05-05 06:06:00,
2013-05-04 23:07:00,33.6,24.2,29.84,SE,135,0.1,0.0,68,0.00,CLR,,0.00,WeatherDisplay:10.37,2013-05-05 06:07:00,
2013-05-04 23:11:00,33.6,24.2,29.84,SE,135,0.1,0.0,68,0.00,CLR,,0.00,WeatherDisplay:10.37,2013-05-05 06:11:00,
2013-05-04 23:12:00,33.6,24.2,29.84,SE,135,0.1,0.0,68,0.00,CLR,,0.00,WeatherDisplay:10.37,2013-05-05 06:12:00,
2013-05-04 23:16:00,33.6,24.2,29.84,SE,135,0.1,0.0,68,0.00,CLR,,0.00,WeatherDisplay:10.37,2013-05-05 06:16:00,
2013-05-04 23:17:00,33.6,24.2,29.84,SE,135,0.1,0.0,68,0.00,CLR,,0.00,WeatherDisplay:10.37,2013-05-05 06:17:00,
2013-05-04 23:21:00,33.6,24.2,29.84,SE,135,0.1,0.0,68,0.00,CLR,,0.00,WeatherDisplay:10.37,2013-05-05 06:21:00,
2013-05-04 23:22:00,33.6,24.2,29.84,SE,135,0.1,0.0,68,0.00,CLR,,0.00,WeatherDisplay:10.37,2013-05-05 06:22:00,
2013-05-04 23:23:00,33.6,24.2,29.84,SE,135,0.1,0.0,68,0.00,CLR,,0.00,WeatherDisplay:10.37,2013-05-05 06:23:00,
2013-05-04 23:26:00,33.6,24.2,29.84,SE,135,0.1,0.0,68,0.00,CLR,,0.00,WeatherDisplay:10.37,2013-05-05 06:26:00,
2013-05-04 23:27:00,33.6,24.2,29.84,SE,135,0.1,0.0,68,0.00,CLR,,0.00,WeatherDisplay:10.37,2013-05-05 06:27:00,
2013-05-04 23:28:00,33.6,24.2,29.84,SE,135,0.1,0.0,68,0.00,CLR,,0.00,WeatherDisplay:10.37,2013-05-05 06:28:00,
2013-05-04 23:31:00,33.6,24.2,29.84,SE,135,0.1,0.0,68,0.00,CLR,,0.00,WeatherDisplay:10.37,2013-05-05 06:31:00,
2013-05-04 23:32:00,33.6,24.2,29.84,SE,135,0.1,0.0,68,0.00,CLR,,0.00,WeatherDisplay:10.37,2013-05-05 06:32:00,
2013-05-04 23:33:00,33.6,24.2,29.84,SE,135,0.1,0.0,68,0.00,CLR,,0.00,WeatherDisplay:10.37,2013-05-05 06:33:00,
2013-05-04 23:36:00,33.6,24.2,29.84,SE,135,0.1,0.0,68,0.00,CLR,,0.00,WeatherDisplay:10.37,2013-05-05 06:36:00,
2013-05-04 23:37:00,33.6,24.2,29.84,SE,135,0.1,0.0,68,0.00,CLR,,0.00,WeatherDisplay:10.37,2013-05-05 06:37:00,
2013-05-04 23:38:00,33.6,24.2,29.84,SE,135,0.1,0.0,68,0.00,CLR,,0.00,WeatherDisplay:10.37,2013-05-05 06:38:00,
2013-05-04 23:42:00,33.6,24.2,29.84,SE,135,0.1,0.0,68,0.00,CLR,,0.00,WeatherDisplay:10.37,2013-05-05 06:42:00,
2013-05-04 23:43:00,33.6,24.2,29.84,SE,135,0.1,0.0,68,0.00,CLR,,0.00,WeatherDisplay:10.37,2013-05-05 06:43:00,
2013-05-04 23:47:00,33.6,24.2,29.84,SE,135,0.1,0.0,68,0.00,CLR,,0.00,WeatherDisplay:10.37,2013-05-05 06:47:00,
2013-05-04 23:48:00,33.6,24.2,29.84,SE,135,0.1,0.0,68,0.00,CLR,,0.00,WeatherDisplay:10.37,2013-05-05 06:48:00,
2013-05-04 23:49:00,33.6,24.2,29.84,SE,135,0.1,0.0,68,0.00,CLR,,0.00,WeatherDisplay:10.37,2013-05-05 06:49:00,
2013-05-04 23:52:00,33.6,24.2,29.84,SE,135,0.1,0.0,68,0.00,CLR,,0.00,WeatherDisplay:10.37,2013-05-05 06:52:00,
2013-05-04 23:54:00,33.6,24.2,29.84,SE,135,0.1,0.0,68,0.00,CLR,,0.00,WeatherDisplay:10.37,2013-05-05 06:54:00,
2013-05-04 23:57:00,33.6,24.2,29.84,SE,135,0.1,0.0,68,0.00,CLR,,0.00,WeatherDisplay:10.37,2013-05-05 06:57:00,
2013-05-04 23:58:00,33.6,24.2,29.84,SE,135,0.1,0.0,68,0.00,CLR,,0.00,WeatherDisplay:10.37,2013-05-05 06:58:00,
2013-05-04 23:59:00,33.6,24.2,29.84,SE,135,0.1,0.0,68,0.00,CLR,,0.00,WeatherDisplay:10.37,2013-05-05 06:59:00,